<?xml version="1.0" encoding="UTF-8" standalone="no" ?>
<gpx xmlns="http://www.topografix.com/GPX/1/1" xmlns:xsi="http://www.w3.org/2001/XMLSchema-instance" xsi:schemaLocation="http://www.topografix.com/GPX/1/1 http://www.topografix.com/GPX/1/1/gpx.xsd" version="1.1" creator="VisuGPX - https://www.visugpx.com">
  <metadata>
    <name>Tracé actuel: 11 OCT 2020 12:52</name>
    <desc><![CDATA[encore une de plus ramener de belles pommes
]]></desc>
  </metadata>
  <trk>
    <name><![CDATA[Tracé actuel: 11 OCT 2020 12:52]]></name>
    <trkseg>
      <trkpt lat="49.63469" lon="4.97768">
        <ele>90.02</ele>
        <time>2020-10-11T10:52:51Z</time>
      </trkpt>
      <trkpt lat="49.63491" lon="4.97761">
        <ele>97.23</ele>
        <time>2020-10-11T10:53:11Z</time>
      </trkpt>
      <trkpt lat="49.63507" lon="4.97751">
        <ele>95.79</ele>
        <time>2020-10-11T10:53:28Z</time>
      </trkpt>
      <trkpt lat="49.63521" lon="4.97743">
        <ele>99.15</ele>
        <time>2020-10-11T10:53:45Z</time>
      </trkpt>
      <trkpt lat="49.6353" lon="4.97729">
        <ele>104.92</ele>
        <time>2020-10-11T10:54:02Z</time>
      </trkpt>
      <trkpt lat="49.63541" lon="4.97713">
        <ele>105.88</ele>
        <time>2020-10-11T10:54:18Z</time>
      </trkpt>
      <trkpt lat="49.63552" lon="4.9768">
        <ele>131.84</ele>
        <time>2020-10-11T10:54:34Z</time>
      </trkpt>
      <trkpt lat="49.63573" lon="4.97648">
        <ele>144.34</ele>
        <time>2020-10-11T10:54:49Z</time>
      </trkpt>
      <trkpt lat="49.63584" lon="4.97625">
        <ele>148.66</ele>
        <time>2020-10-11T10:55:06Z</time>
      </trkpt>
      <trkpt lat="49.6359" lon="4.9761">
        <ele>148.18</ele>
        <time>2020-10-11T10:55:21Z</time>
      </trkpt>
      <trkpt lat="49.63604" lon="4.97605">
        <ele>150.58</ele>
        <time>2020-10-11T10:55:41Z</time>
      </trkpt>
      <trkpt lat="49.63611" lon="4.97617">
        <ele>159.72</ele>
        <time>2020-10-11T10:55:44Z</time>
      </trkpt>
      <trkpt lat="49.63596" lon="4.97622">
        <ele>162.12</ele>
        <time>2020-10-11T10:55:59Z</time>
      </trkpt>
      <trkpt lat="49.63578" lon="4.97603">
        <ele>163.56</ele>
        <time>2020-10-11T10:56:19Z</time>
      </trkpt>
      <trkpt lat="49.6356" lon="4.97591">
        <ele>159.72</ele>
        <time>2020-10-11T10:56:36Z</time>
      </trkpt>
      <trkpt lat="49.63546" lon="4.97572">
        <ele>158.75</ele>
        <time>2020-10-11T10:56:54Z</time>
      </trkpt>
      <trkpt lat="49.63531" lon="4.97548">
        <ele>158.75</ele>
        <time>2020-10-11T10:57:14Z</time>
      </trkpt>
      <trkpt lat="49.63531" lon="4.97547">
        <ele>158.75</ele>
        <time>2020-10-11T10:57:15Z</time>
      </trkpt>
      <trkpt lat="49.63516" lon="4.97521">
        <ele>159.24</ele>
        <time>2020-10-11T10:57:35Z</time>
      </trkpt>
      <trkpt lat="49.635" lon="4.97493">
        <ele>159.72</ele>
        <time>2020-10-11T10:57:56Z</time>
      </trkpt>
      <trkpt lat="49.6349" lon="4.97472">
        <ele>159.72</ele>
        <time>2020-10-11T10:58:13Z</time>
      </trkpt>
      <trkpt lat="49.63476" lon="4.9745">
        <ele>158.75</ele>
        <time>2020-10-11T10:58:32Z</time>
      </trkpt>
      <trkpt lat="49.63463" lon="4.9743">
        <ele>158.75</ele>
        <time>2020-10-11T10:58:50Z</time>
      </trkpt>
      <trkpt lat="49.63449" lon="4.97409">
        <ele>157.79</ele>
        <time>2020-10-11T10:59:10Z</time>
      </trkpt>
      <trkpt lat="49.63434" lon="4.97389">
        <ele>158.27</ele>
        <time>2020-10-11T10:59:30Z</time>
      </trkpt>
      <trkpt lat="49.63419" lon="4.97363">
        <ele>157.79</ele>
        <time>2020-10-11T10:59:51Z</time>
      </trkpt>
      <trkpt lat="49.63408" lon="4.97343">
        <ele>155.87</ele>
        <time>2020-10-11T11:00:07Z</time>
      </trkpt>
      <trkpt lat="49.634" lon="4.97316">
        <ele>151.54</ele>
        <time>2020-10-11T11:00:30Z</time>
      </trkpt>
      <trkpt lat="49.63384" lon="4.97293">
        <ele>151.54</ele>
        <time>2020-10-11T11:00:49Z</time>
      </trkpt>
      <trkpt lat="49.63366" lon="4.97266">
        <ele>152.51</ele>
        <time>2020-10-11T11:01:07Z</time>
      </trkpt>
      <trkpt lat="49.63352" lon="4.97231">
        <ele>154.91</ele>
        <time>2020-10-11T11:01:28Z</time>
      </trkpt>
      <trkpt lat="49.63342" lon="4.97198">
        <ele>154.43</ele>
        <time>2020-10-11T11:01:47Z</time>
      </trkpt>
      <trkpt lat="49.63334" lon="4.97167">
        <ele>157.79</ele>
        <time>2020-10-11T11:02:08Z</time>
      </trkpt>
      <trkpt lat="49.63326" lon="4.97135">
        <ele>161.16</ele>
        <time>2020-10-11T11:02:28Z</time>
      </trkpt>
      <trkpt lat="49.63318" lon="4.97101">
        <ele>166.93</ele>
        <time>2020-10-11T11:02:49Z</time>
      </trkpt>
      <trkpt lat="49.63313" lon="4.97072">
        <ele>171.25</ele>
        <time>2020-10-11T11:03:08Z</time>
      </trkpt>
      <trkpt lat="49.63311" lon="4.97061">
        <ele>170.29</ele>
        <time>2020-10-11T11:03:26Z</time>
      </trkpt>
      <trkpt lat="49.63302" lon="4.97031">
        <ele>170.29</ele>
        <time>2020-10-11T11:03:43Z</time>
      </trkpt>
      <trkpt lat="49.63294" lon="4.96992">
        <ele>171.73</ele>
        <time>2020-10-11T11:04:03Z</time>
      </trkpt>
      <trkpt lat="49.63284" lon="4.96955">
        <ele>172.21</ele>
        <time>2020-10-11T11:04:24Z</time>
      </trkpt>
      <trkpt lat="49.63274" lon="4.96923">
        <ele>170.29</ele>
        <time>2020-10-11T11:04:45Z</time>
      </trkpt>
      <trkpt lat="49.63269" lon="4.96894">
        <ele>168.85</ele>
        <time>2020-10-11T11:05:03Z</time>
      </trkpt>
      <trkpt lat="49.63253" lon="4.96859">
        <ele>165.96</ele>
        <time>2020-10-11T11:05:26Z</time>
      </trkpt>
      <trkpt lat="49.63249" lon="4.96852">
        <ele>165.96</ele>
        <time>2020-10-11T11:05:31Z</time>
      </trkpt>
      <trkpt lat="49.63238" lon="4.9683">
        <ele>167.41</ele>
        <time>2020-10-11T11:05:50Z</time>
      </trkpt>
      <trkpt lat="49.63227" lon="4.96805">
        <ele>167.89</ele>
        <time>2020-10-11T11:06:08Z</time>
      </trkpt>
      <trkpt lat="49.63209" lon="4.96783">
        <ele>167.41</ele>
        <time>2020-10-11T11:06:28Z</time>
      </trkpt>
      <trkpt lat="49.63189" lon="4.96765">
        <ele>164.52</ele>
        <time>2020-10-11T11:06:48Z</time>
      </trkpt>
      <trkpt lat="49.63182" lon="4.96759">
        <ele>163.08</ele>
        <time>2020-10-11T11:06:55Z</time>
      </trkpt>
      <trkpt lat="49.63163" lon="4.96742">
        <ele>157.79</ele>
        <time>2020-10-11T11:07:15Z</time>
      </trkpt>
      <trkpt lat="49.63143" lon="4.9672">
        <ele>157.31</ele>
        <time>2020-10-11T11:07:36Z</time>
      </trkpt>
      <trkpt lat="49.63125" lon="4.96704">
        <ele>158.27</ele>
        <time>2020-10-11T11:07:55Z</time>
      </trkpt>
      <trkpt lat="49.63105" lon="4.96688">
        <ele>157.31</ele>
        <time>2020-10-11T11:08:15Z</time>
      </trkpt>
      <trkpt lat="49.6309" lon="4.96671">
        <ele>156.83</ele>
        <time>2020-10-11T11:08:32Z</time>
      </trkpt>
      <trkpt lat="49.63071" lon="4.96652">
        <ele>154.91</ele>
        <time>2020-10-11T11:08:54Z</time>
      </trkpt>
      <trkpt lat="49.63056" lon="4.96635">
        <ele>157.31</ele>
        <time>2020-10-11T11:09:12Z</time>
      </trkpt>
      <trkpt lat="49.63039" lon="4.96623">
        <ele>161.16</ele>
        <time>2020-10-11T11:09:31Z</time>
      </trkpt>
      <trkpt lat="49.63023" lon="4.96606">
        <ele>165</ele>
        <time>2020-10-11T11:09:48Z</time>
      </trkpt>
      <trkpt lat="49.63005" lon="4.96591">
        <ele>165</ele>
        <time>2020-10-11T11:10:08Z</time>
      </trkpt>
      <trkpt lat="49.62997" lon="4.96583">
        <ele>166.45</ele>
        <time>2020-10-11T11:10:27Z</time>
      </trkpt>
      <trkpt lat="49.62977" lon="4.9657">
        <ele>165.48</ele>
        <time>2020-10-11T11:10:46Z</time>
      </trkpt>
      <trkpt lat="49.62956" lon="4.96556">
        <ele>162.6</ele>
        <time>2020-10-11T11:11:05Z</time>
      </trkpt>
      <trkpt lat="49.62936" lon="4.96543">
        <ele>156.35</ele>
        <time>2020-10-11T11:11:25Z</time>
      </trkpt>
      <trkpt lat="49.62919" lon="4.96534">
        <ele>152.99</ele>
        <time>2020-10-11T11:11:44Z</time>
      </trkpt>
      <trkpt lat="49.62902" lon="4.96525">
        <ele>151.54</ele>
        <time>2020-10-11T11:12:01Z</time>
      </trkpt>
      <trkpt lat="49.62882" lon="4.96501">
        <ele>155.39</ele>
        <time>2020-10-11T11:12:19Z</time>
      </trkpt>
      <trkpt lat="49.62877" lon="4.96496">
        <ele>155.87</ele>
        <time>2020-10-11T11:12:24Z</time>
      </trkpt>
      <trkpt lat="49.62858" lon="4.96488">
        <ele>152.99</ele>
        <time>2020-10-11T11:12:42Z</time>
      </trkpt>
      <trkpt lat="49.6284" lon="4.96481">
        <ele>151.06</ele>
        <time>2020-10-11T11:13:00Z</time>
      </trkpt>
      <trkpt lat="49.6282" lon="4.96472">
        <ele>148.66</ele>
        <time>2020-10-11T11:13:20Z</time>
      </trkpt>
      <trkpt lat="49.628" lon="4.96463">
        <ele>148.18</ele>
        <time>2020-10-11T11:13:40Z</time>
      </trkpt>
      <trkpt lat="49.62781" lon="4.96453">
        <ele>148.66</ele>
        <time>2020-10-11T11:13:58Z</time>
      </trkpt>
      <trkpt lat="49.62765" lon="4.96441">
        <ele>148.66</ele>
        <time>2020-10-11T11:14:14Z</time>
      </trkpt>
      <trkpt lat="49.62748" lon="4.96431">
        <ele>150.1</ele>
        <time>2020-10-11T11:14:31Z</time>
      </trkpt>
      <trkpt lat="49.62731" lon="4.96423">
        <ele>153.47</ele>
        <time>2020-10-11T11:14:47Z</time>
      </trkpt>
      <trkpt lat="49.62711" lon="4.96409">
        <ele>155.87</ele>
        <time>2020-10-11T11:15:04Z</time>
      </trkpt>
      <trkpt lat="49.6269" lon="4.96394">
        <ele>158.27</ele>
        <time>2020-10-11T11:15:23Z</time>
      </trkpt>
      <trkpt lat="49.62673" lon="4.96386">
        <ele>158.27</ele>
        <time>2020-10-11T11:15:40Z</time>
      </trkpt>
      <trkpt lat="49.62654" lon="4.96373">
        <ele>157.31</ele>
        <time>2020-10-11T11:15:58Z</time>
      </trkpt>
      <trkpt lat="49.62636" lon="4.96362">
        <ele>160.68</ele>
        <time>2020-10-11T11:16:14Z</time>
      </trkpt>
      <trkpt lat="49.62619" lon="4.96354">
        <ele>162.12</ele>
        <time>2020-10-11T11:16:31Z</time>
      </trkpt>
      <trkpt lat="49.62607" lon="4.96348">
        <ele>162.6</ele>
        <time>2020-10-11T11:16:42Z</time>
      </trkpt>
      <trkpt lat="49.62585" lon="4.96333">
        <ele>165</ele>
        <time>2020-10-11T11:17:02Z</time>
      </trkpt>
      <trkpt lat="49.62568" lon="4.96324">
        <ele>166.45</ele>
        <time>2020-10-11T11:17:20Z</time>
      </trkpt>
      <trkpt lat="49.62549" lon="4.96315">
        <ele>166.93</ele>
        <time>2020-10-11T11:17:37Z</time>
      </trkpt>
      <trkpt lat="49.62529" lon="4.96305">
        <ele>167.41</ele>
        <time>2020-10-11T11:17:57Z</time>
      </trkpt>
      <trkpt lat="49.62509" lon="4.96296">
        <ele>166.45</ele>
        <time>2020-10-11T11:18:15Z</time>
      </trkpt>
      <trkpt lat="49.62492" lon="4.96292">
        <ele>162.6</ele>
        <time>2020-10-11T11:18:32Z</time>
      </trkpt>
      <trkpt lat="49.62471" lon="4.96277">
        <ele>157.79</ele>
        <time>2020-10-11T11:18:51Z</time>
      </trkpt>
      <trkpt lat="49.62459" lon="4.96267">
        <ele>155.87</ele>
        <time>2020-10-11T11:19:04Z</time>
      </trkpt>
      <trkpt lat="49.62447" lon="4.96257">
        <ele>155.39</ele>
        <time>2020-10-11T11:19:13Z</time>
      </trkpt>
      <trkpt lat="49.6242" lon="4.96254">
        <ele>154.43</ele>
        <time>2020-10-11T11:19:32Z</time>
      </trkpt>
      <trkpt lat="49.62405" lon="4.96253">
        <ele>154.43</ele>
        <time>2020-10-11T11:19:45Z</time>
      </trkpt>
      <trkpt lat="49.62389" lon="4.96241">
        <ele>153.47</ele>
        <time>2020-10-11T11:20:03Z</time>
      </trkpt>
      <trkpt lat="49.62372" lon="4.96226">
        <ele>153.95</ele>
        <time>2020-10-11T11:20:22Z</time>
      </trkpt>
      <trkpt lat="49.62352" lon="4.96215">
        <ele>155.39</ele>
        <time>2020-10-11T11:20:41Z</time>
      </trkpt>
      <trkpt lat="49.62332" lon="4.96208">
        <ele>160.2</ele>
        <time>2020-10-11T11:21:00Z</time>
      </trkpt>
      <trkpt lat="49.6231" lon="4.96203">
        <ele>165</ele>
        <time>2020-10-11T11:21:20Z</time>
      </trkpt>
      <trkpt lat="49.6229" lon="4.96201">
        <ele>167.89</ele>
        <time>2020-10-11T11:21:38Z</time>
      </trkpt>
      <trkpt lat="49.62268" lon="4.96195">
        <ele>170.29</ele>
        <time>2020-10-11T11:21:58Z</time>
      </trkpt>
      <trkpt lat="49.6225" lon="4.96192">
        <ele>169.81</ele>
        <time>2020-10-11T11:22:16Z</time>
      </trkpt>
      <trkpt lat="49.62234" lon="4.96192">
        <ele>172.21</ele>
        <time>2020-10-11T11:22:31Z</time>
      </trkpt>
      <trkpt lat="49.62229" lon="4.96192">
        <ele>172.21</ele>
        <time>2020-10-11T11:22:35Z</time>
      </trkpt>
      <trkpt lat="49.62212" lon="4.96186">
        <ele>171.25</ele>
        <time>2020-10-11T11:22:50Z</time>
      </trkpt>
      <trkpt lat="49.62189" lon="4.96183">
        <ele>168.37</ele>
        <time>2020-10-11T11:23:10Z</time>
      </trkpt>
      <trkpt lat="49.62169" lon="4.96175">
        <ele>164.52</ele>
        <time>2020-10-11T11:23:28Z</time>
      </trkpt>
      <trkpt lat="49.62148" lon="4.96168">
        <ele>160.2</ele>
        <time>2020-10-11T11:23:46Z</time>
      </trkpt>
      <trkpt lat="49.62144" lon="4.96168">
        <ele>159.24</ele>
        <time>2020-10-11T11:23:50Z</time>
      </trkpt>
      <trkpt lat="49.62129" lon="4.96162">
        <ele>156.83</ele>
        <time>2020-10-11T11:24:04Z</time>
      </trkpt>
      <trkpt lat="49.62106" lon="4.96154">
        <ele>154.43</ele>
        <time>2020-10-11T11:24:23Z</time>
      </trkpt>
      <trkpt lat="49.62098" lon="4.96152">
        <ele>154.43</ele>
        <time>2020-10-11T11:24:29Z</time>
      </trkpt>
      <trkpt lat="49.62081" lon="4.96146">
        <ele>151.54</ele>
        <time>2020-10-11T11:24:45Z</time>
      </trkpt>
      <trkpt lat="49.62063" lon="4.96142">
        <ele>151.06</ele>
        <time>2020-10-11T11:25:01Z</time>
      </trkpt>
      <trkpt lat="49.6204" lon="4.96136">
        <ele>157.79</ele>
        <time>2020-10-11T11:25:20Z</time>
      </trkpt>
      <trkpt lat="49.62021" lon="4.96131">
        <ele>162.6</ele>
        <time>2020-10-11T11:25:38Z</time>
      </trkpt>
      <trkpt lat="49.61999" lon="4.96128">
        <ele>163.08</ele>
        <time>2020-10-11T11:25:58Z</time>
      </trkpt>
      <trkpt lat="49.61976" lon="4.9612">
        <ele>165</ele>
        <time>2020-10-11T11:26:16Z</time>
      </trkpt>
      <trkpt lat="49.6196" lon="4.96116">
        <ele>164.52</ele>
        <time>2020-10-11T11:26:32Z</time>
      </trkpt>
      <trkpt lat="49.61938" lon="4.96112">
        <ele>165.48</ele>
        <time>2020-10-11T11:26:50Z</time>
      </trkpt>
      <trkpt lat="49.61933" lon="4.9611">
        <ele>166.93</ele>
        <time>2020-10-11T11:26:54Z</time>
      </trkpt>
      <trkpt lat="49.61916" lon="4.9611">
        <ele>167.41</ele>
        <time>2020-10-11T11:27:06Z</time>
      </trkpt>
      <trkpt lat="49.619" lon="4.96102">
        <ele>169.81</ele>
        <time>2020-10-11T11:27:24Z</time>
      </trkpt>
      <trkpt lat="49.61893" lon="4.96103">
        <ele>168.85</ele>
        <time>2020-10-11T11:27:28Z</time>
      </trkpt>
      <trkpt lat="49.61872" lon="4.96102">
        <ele>168.37</ele>
        <time>2020-10-11T11:27:47Z</time>
      </trkpt>
      <trkpt lat="49.6185" lon="4.96086">
        <ele>168.85</ele>
        <time>2020-10-11T11:28:07Z</time>
      </trkpt>
      <trkpt lat="49.61828" lon="4.96078">
        <ele>166.45</ele>
        <time>2020-10-11T11:28:27Z</time>
      </trkpt>
      <trkpt lat="49.61805" lon="4.96071">
        <ele>164.04</ele>
        <time>2020-10-11T11:28:46Z</time>
      </trkpt>
      <trkpt lat="49.61787" lon="4.96068">
        <ele>162.6</ele>
        <time>2020-10-11T11:29:05Z</time>
      </trkpt>
      <trkpt lat="49.6177" lon="4.96063">
        <ele>161.64</ele>
        <time>2020-10-11T11:29:19Z</time>
      </trkpt>
      <trkpt lat="49.61746" lon="4.96054">
        <ele>161.16</ele>
        <time>2020-10-11T11:29:39Z</time>
      </trkpt>
      <trkpt lat="49.61726" lon="4.96053">
        <ele>160.2</ele>
        <time>2020-10-11T11:29:57Z</time>
      </trkpt>
      <trkpt lat="49.617" lon="4.96043">
        <ele>158.27</ele>
        <time>2020-10-11T11:30:20Z</time>
      </trkpt>
      <trkpt lat="49.61676" lon="4.9604">
        <ele>154.91</ele>
        <time>2020-10-11T11:30:40Z</time>
      </trkpt>
      <trkpt lat="49.61673" lon="4.96039">
        <ele>154.91</ele>
        <time>2020-10-11T11:30:43Z</time>
      </trkpt>
      <trkpt lat="49.61649" lon="4.9604">
        <ele>155.39</ele>
        <time>2020-10-11T11:31:03Z</time>
      </trkpt>
      <trkpt lat="49.61631" lon="4.96025">
        <ele>158.27</ele>
        <time>2020-10-11T11:31:24Z</time>
      </trkpt>
      <trkpt lat="49.61613" lon="4.96016">
        <ele>160.2</ele>
        <time>2020-10-11T11:31:43Z</time>
      </trkpt>
      <trkpt lat="49.61613" lon="4.96016">
        <ele>160.2</ele>
        <time>2020-10-11T11:31:44Z</time>
      </trkpt>
      <trkpt lat="49.61586" lon="4.96005">
        <ele>167.41</ele>
        <time>2020-10-11T11:32:08Z</time>
      </trkpt>
      <trkpt lat="49.61562" lon="4.95996">
        <ele>172.69</ele>
        <time>2020-10-11T11:32:28Z</time>
      </trkpt>
      <trkpt lat="49.61541" lon="4.95988">
        <ele>174.62</ele>
        <time>2020-10-11T11:32:50Z</time>
      </trkpt>
      <trkpt lat="49.61523" lon="4.95982">
        <ele>177.02</ele>
        <time>2020-10-11T11:33:09Z</time>
      </trkpt>
      <trkpt lat="49.61505" lon="4.95972">
        <ele>175.58</ele>
        <time>2020-10-11T11:33:25Z</time>
      </trkpt>
      <trkpt lat="49.61479" lon="4.95953">
        <ele>171.73</ele>
        <time>2020-10-11T11:33:46Z</time>
      </trkpt>
      <trkpt lat="49.61461" lon="4.95941">
        <ele>165.48</ele>
        <time>2020-10-11T11:34:06Z</time>
      </trkpt>
      <trkpt lat="49.61451" lon="4.95935">
        <ele>164.04</ele>
        <time>2020-10-11T11:34:15Z</time>
      </trkpt>
      <trkpt lat="49.6144" lon="4.95907">
        <ele>161.16</ele>
        <time>2020-10-11T11:34:34Z</time>
      </trkpt>
      <trkpt lat="49.61427" lon="4.95879">
        <ele>159.24</ele>
        <time>2020-10-11T11:34:51Z</time>
      </trkpt>
      <trkpt lat="49.61424" lon="4.95874">
        <ele>157.31</ele>
        <time>2020-10-11T11:34:56Z</time>
      </trkpt>
      <trkpt lat="49.61405" lon="4.95849">
        <ele>154.43</ele>
        <time>2020-10-11T11:35:17Z</time>
      </trkpt>
      <trkpt lat="49.6139" lon="4.95826">
        <ele>155.87</ele>
        <time>2020-10-11T11:35:36Z</time>
      </trkpt>
      <trkpt lat="49.61374" lon="4.95804">
        <ele>159.72</ele>
        <time>2020-10-11T11:35:55Z</time>
      </trkpt>
      <trkpt lat="49.61357" lon="4.95781">
        <ele>159.72</ele>
        <time>2020-10-11T11:36:14Z</time>
      </trkpt>
      <trkpt lat="49.61341" lon="4.95768">
        <ele>157.31</ele>
        <time>2020-10-11T11:36:31Z</time>
      </trkpt>
      <trkpt lat="49.6132" lon="4.95752">
        <ele>153.95</ele>
        <time>2020-10-11T11:36:49Z</time>
      </trkpt>
      <trkpt lat="49.61312" lon="4.95746">
        <ele>151.06</ele>
        <time>2020-10-11T11:36:58Z</time>
      </trkpt>
      <trkpt lat="49.6129" lon="4.95729">
        <ele>147.22</ele>
        <time>2020-10-11T11:37:17Z</time>
      </trkpt>
      <trkpt lat="49.61273" lon="4.95718">
        <ele>145.3</ele>
        <time>2020-10-11T11:37:32Z</time>
      </trkpt>
      <trkpt lat="49.61259" lon="4.95695">
        <ele>145.78</ele>
        <time>2020-10-11T11:37:50Z</time>
      </trkpt>
      <trkpt lat="49.61242" lon="4.95683">
        <ele>145.78</ele>
        <time>2020-10-11T11:38:05Z</time>
      </trkpt>
      <trkpt lat="49.61226" lon="4.95673">
        <ele>143.85</ele>
        <time>2020-10-11T11:38:19Z</time>
      </trkpt>
      <trkpt lat="49.61206" lon="4.9566">
        <ele>140.49</ele>
        <time>2020-10-11T11:38:37Z</time>
      </trkpt>
      <trkpt lat="49.61184" lon="4.95648">
        <ele>140.97</ele>
        <time>2020-10-11T11:38:57Z</time>
      </trkpt>
      <trkpt lat="49.61167" lon="4.95631">
        <ele>141.93</ele>
        <time>2020-10-11T11:39:14Z</time>
      </trkpt>
      <trkpt lat="49.61155" lon="4.95623">
        <ele>141.45</ele>
        <time>2020-10-11T11:39:26Z</time>
      </trkpt>
      <trkpt lat="49.61137" lon="4.95611">
        <ele>148.66</ele>
        <time>2020-10-11T11:39:43Z</time>
      </trkpt>
      <trkpt lat="49.61117" lon="4.95599">
        <ele>155.87</ele>
        <time>2020-10-11T11:40:02Z</time>
      </trkpt>
      <trkpt lat="49.61101" lon="4.95587">
        <ele>159.24</ele>
        <time>2020-10-11T11:40:19Z</time>
      </trkpt>
      <trkpt lat="49.61081" lon="4.95578">
        <ele>162.12</ele>
        <time>2020-10-11T11:40:37Z</time>
      </trkpt>
      <trkpt lat="49.61062" lon="4.95565">
        <ele>160.2</ele>
        <time>2020-10-11T11:40:54Z</time>
      </trkpt>
      <trkpt lat="49.61041" lon="4.95554">
        <ele>160.68</ele>
        <time>2020-10-11T11:41:13Z</time>
      </trkpt>
      <trkpt lat="49.61022" lon="4.95541">
        <ele>162.12</ele>
        <time>2020-10-11T11:41:30Z</time>
      </trkpt>
      <trkpt lat="49.61019" lon="4.95538">
        <ele>162.6</ele>
        <time>2020-10-11T11:41:33Z</time>
      </trkpt>
      <trkpt lat="49.61" lon="4.9553">
        <ele>159.72</ele>
        <time>2020-10-11T11:41:49Z</time>
      </trkpt>
      <trkpt lat="49.6099" lon="4.95523">
        <ele>160.68</ele>
        <time>2020-10-11T11:41:59Z</time>
      </trkpt>
      <trkpt lat="49.60973" lon="4.95511">
        <ele>167.89</ele>
        <time>2020-10-11T11:42:15Z</time>
      </trkpt>
      <trkpt lat="49.60955" lon="4.95503">
        <ele>170.29</ele>
        <time>2020-10-11T11:42:34Z</time>
      </trkpt>
      <trkpt lat="49.60933" lon="4.95487">
        <ele>171.25</ele>
        <time>2020-10-11T11:42:54Z</time>
      </trkpt>
      <trkpt lat="49.60918" lon="4.95479">
        <ele>171.73</ele>
        <time>2020-10-11T11:43:08Z</time>
      </trkpt>
      <trkpt lat="49.60896" lon="4.95464">
        <ele>168.85</ele>
        <time>2020-10-11T11:43:27Z</time>
      </trkpt>
      <trkpt lat="49.60874" lon="4.95458">
        <ele>165.48</ele>
        <time>2020-10-11T11:43:47Z</time>
      </trkpt>
      <trkpt lat="49.60868" lon="4.95458">
        <ele>165</ele>
        <time>2020-10-11T11:43:52Z</time>
      </trkpt>
      <trkpt lat="49.60849" lon="4.95443">
        <ele>166.93</ele>
        <time>2020-10-11T11:44:10Z</time>
      </trkpt>
      <trkpt lat="49.60834" lon="4.95425">
        <ele>170.29</ele>
        <time>2020-10-11T11:44:27Z</time>
      </trkpt>
      <trkpt lat="49.60817" lon="4.95418">
        <ele>175.1</ele>
        <time>2020-10-11T11:44:44Z</time>
      </trkpt>
      <trkpt lat="49.60815" lon="4.95416">
        <ele>175.58</ele>
        <time>2020-10-11T11:44:46Z</time>
      </trkpt>
      <trkpt lat="49.60794" lon="4.95411">
        <ele>178.46</ele>
        <time>2020-10-11T11:45:05Z</time>
      </trkpt>
      <trkpt lat="49.60769" lon="4.9541">
        <ele>178.94</ele>
        <time>2020-10-11T11:45:26Z</time>
      </trkpt>
      <trkpt lat="49.60743" lon="4.95409">
        <ele>178.94</ele>
        <time>2020-10-11T11:45:47Z</time>
      </trkpt>
      <trkpt lat="49.60722" lon="4.95412">
        <ele>177.98</ele>
        <time>2020-10-11T11:46:07Z</time>
      </trkpt>
      <trkpt lat="49.60701" lon="4.95414">
        <ele>177.5</ele>
        <time>2020-10-11T11:46:23Z</time>
      </trkpt>
      <trkpt lat="49.60679" lon="4.9542">
        <ele>178.94</ele>
        <time>2020-10-11T11:46:42Z</time>
      </trkpt>
      <trkpt lat="49.6066" lon="4.95427">
        <ele>178.94</ele>
        <time>2020-10-11T11:46:58Z</time>
      </trkpt>
      <trkpt lat="49.6064" lon="4.95426">
        <ele>184.23</ele>
        <time>2020-10-11T11:47:14Z</time>
      </trkpt>
      <trkpt lat="49.60622" lon="4.9543">
        <ele>186.63</ele>
        <time>2020-10-11T11:47:30Z</time>
      </trkpt>
      <trkpt lat="49.60607" lon="4.95434">
        <ele>186.63</ele>
        <time>2020-10-11T11:47:43Z</time>
      </trkpt>
      <trkpt lat="49.60587" lon="4.95441">
        <ele>186.63</ele>
        <time>2020-10-11T11:48:02Z</time>
      </trkpt>
      <trkpt lat="49.60566" lon="4.95443">
        <ele>187.59</ele>
        <time>2020-10-11T11:48:20Z</time>
      </trkpt>
      <trkpt lat="49.60544" lon="4.95451">
        <ele>186.63</ele>
        <time>2020-10-11T11:48:38Z</time>
      </trkpt>
      <trkpt lat="49.60533" lon="4.95454">
        <ele>184.23</ele>
        <time>2020-10-11T11:48:47Z</time>
      </trkpt>
      <trkpt lat="49.60526" lon="4.9547">
        <ele>183.27</ele>
        <time>2020-10-11T11:49:03Z</time>
      </trkpt>
      <trkpt lat="49.60524" lon="4.95469">
        <ele>185.19</ele>
        <time>2020-10-11T11:49:24Z</time>
      </trkpt>
      <trkpt lat="49.60525" lon="4.9547">
        <ele>190.96</ele>
        <time>2020-10-11T11:49:42Z</time>
      </trkpt>
      <trkpt lat="49.60526" lon="4.95473">
        <ele>192.88</ele>
        <time>2020-10-11T11:50:03Z</time>
      </trkpt>
      <trkpt lat="49.60527" lon="4.95473">
        <ele>192.88</ele>
        <time>2020-10-11T11:50:17Z</time>
      </trkpt>
      <trkpt lat="49.60526" lon="4.95473">
        <ele>192.88</ele>
        <time>2020-10-11T11:50:33Z</time>
      </trkpt>
      <trkpt lat="49.60526" lon="4.95473">
        <ele>192.88</ele>
        <time>2020-10-11T11:50:51Z</time>
      </trkpt>
      <trkpt lat="49.60526" lon="4.95473">
        <ele>192.88</ele>
        <time>2020-10-11T11:51:11Z</time>
      </trkpt>
      <trkpt lat="49.60525" lon="4.95474">
        <ele>193.84</ele>
        <time>2020-10-11T11:51:37Z</time>
      </trkpt>
      <trkpt lat="49.60518" lon="4.95473">
        <ele>192.88</ele>
        <time>2020-10-11T11:51:54Z</time>
      </trkpt>
      <trkpt lat="49.60503" lon="4.95483">
        <ele>193.84</ele>
        <time>2020-10-11T11:52:09Z</time>
      </trkpt>
      <trkpt lat="49.60478" lon="4.95496">
        <ele>191.92</ele>
        <time>2020-10-11T11:52:31Z</time>
      </trkpt>
      <trkpt lat="49.6046" lon="4.95506">
        <ele>190</ele>
        <time>2020-10-11T11:52:48Z</time>
      </trkpt>
      <trkpt lat="49.60438" lon="4.95519">
        <ele>187.59</ele>
        <time>2020-10-11T11:53:09Z</time>
      </trkpt>
      <trkpt lat="49.60421" lon="4.95531">
        <ele>188.56</ele>
        <time>2020-10-11T11:53:25Z</time>
      </trkpt>
      <trkpt lat="49.60409" lon="4.95537">
        <ele>187.11</ele>
        <time>2020-10-11T11:53:36Z</time>
      </trkpt>
      <trkpt lat="49.60393" lon="4.95541">
        <ele>183.75</ele>
        <time>2020-10-11T11:53:51Z</time>
      </trkpt>
      <trkpt lat="49.60382" lon="4.95545">
        <ele>182.31</ele>
        <time>2020-10-11T11:54:00Z</time>
      </trkpt>
      <trkpt lat="49.60371" lon="4.95547">
        <ele>179.42</ele>
        <time>2020-10-11T11:54:11Z</time>
      </trkpt>
      <trkpt lat="49.60366" lon="4.95548">
        <ele>178.46</ele>
        <time>2020-10-11T11:54:15Z</time>
      </trkpt>
      <trkpt lat="49.60343" lon="4.95535">
        <ele>181.35</ele>
        <time>2020-10-11T11:54:35Z</time>
      </trkpt>
      <trkpt lat="49.60325" lon="4.9553">
        <ele>179.9</ele>
        <time>2020-10-11T11:54:52Z</time>
      </trkpt>
      <trkpt lat="49.60316" lon="4.95533">
        <ele>180.38</ele>
        <time>2020-10-11T11:54:58Z</time>
      </trkpt>
      <trkpt lat="49.60296" lon="4.95542">
        <ele>184.23</ele>
        <time>2020-10-11T11:55:16Z</time>
      </trkpt>
      <trkpt lat="49.60278" lon="4.95544">
        <ele>183.75</ele>
        <time>2020-10-11T11:55:32Z</time>
      </trkpt>
      <trkpt lat="49.60262" lon="4.95526">
        <ele>185.19</ele>
        <time>2020-10-11T11:55:49Z</time>
      </trkpt>
      <trkpt lat="49.60238" lon="4.95513">
        <ele>187.11</ele>
        <time>2020-10-11T11:56:09Z</time>
      </trkpt>
      <trkpt lat="49.60215" lon="4.95509">
        <ele>186.15</ele>
        <time>2020-10-11T11:56:27Z</time>
      </trkpt>
      <trkpt lat="49.60193" lon="4.95513">
        <ele>187.11</ele>
        <time>2020-10-11T11:56:45Z</time>
      </trkpt>
      <trkpt lat="49.60168" lon="4.95517">
        <ele>184.71</ele>
        <time>2020-10-11T11:57:05Z</time>
      </trkpt>
      <trkpt lat="49.60153" lon="4.95522">
        <ele>185.19</ele>
        <time>2020-10-11T11:57:18Z</time>
      </trkpt>
      <trkpt lat="49.60134" lon="4.95531">
        <ele>189.04</ele>
        <time>2020-10-11T11:57:37Z</time>
      </trkpt>
      <trkpt lat="49.60129" lon="4.95533">
        <ele>189.04</ele>
        <time>2020-10-11T11:57:42Z</time>
      </trkpt>
      <trkpt lat="49.6011" lon="4.95541">
        <ele>188.56</ele>
        <time>2020-10-11T11:57:59Z</time>
      </trkpt>
      <trkpt lat="49.60094" lon="4.95547">
        <ele>188.08</ele>
        <time>2020-10-11T11:58:13Z</time>
      </trkpt>
      <trkpt lat="49.6009" lon="4.95547">
        <ele>188.56</ele>
        <time>2020-10-11T11:58:17Z</time>
      </trkpt>
      <trkpt lat="49.60082" lon="4.95547">
        <ele>188.56</ele>
        <time>2020-10-11T11:58:24Z</time>
      </trkpt>
      <trkpt lat="49.6006" lon="4.95538">
        <ele>190.48</ele>
        <time>2020-10-11T11:58:42Z</time>
      </trkpt>
      <trkpt lat="49.60042" lon="4.95529">
        <ele>190</ele>
        <time>2020-10-11T11:58:58Z</time>
      </trkpt>
      <trkpt lat="49.60023" lon="4.9552">
        <ele>191.44</ele>
        <time>2020-10-11T11:59:15Z</time>
      </trkpt>
      <trkpt lat="49.59997" lon="4.95505">
        <ele>194.32</ele>
        <time>2020-10-11T11:59:38Z</time>
      </trkpt>
      <trkpt lat="49.5998" lon="4.95496">
        <ele>195.77</ele>
        <time>2020-10-11T11:59:52Z</time>
      </trkpt>
      <trkpt lat="49.59957" lon="4.95483">
        <ele>200.09</ele>
        <time>2020-10-11T12:00:13Z</time>
      </trkpt>
      <trkpt lat="49.59952" lon="4.9548">
        <ele>201.05</ele>
        <time>2020-10-11T12:00:17Z</time>
      </trkpt>
      <trkpt lat="49.59947" lon="4.95478">
        <ele>201.05</ele>
        <time>2020-10-11T12:00:21Z</time>
      </trkpt>
      <trkpt lat="49.59927" lon="4.95466">
        <ele>199.61</ele>
        <time>2020-10-11T12:00:38Z</time>
      </trkpt>
      <trkpt lat="49.59904" lon="4.95462">
        <ele>194.32</ele>
        <time>2020-10-11T12:00:55Z</time>
      </trkpt>
      <trkpt lat="49.59881" lon="4.95474">
        <ele>190</ele>
        <time>2020-10-11T12:01:14Z</time>
      </trkpt>
      <trkpt lat="49.59865" lon="4.95481">
        <ele>187.59</ele>
        <time>2020-10-11T12:01:31Z</time>
      </trkpt>
      <trkpt lat="49.59845" lon="4.95478">
        <ele>185.19</ele>
        <time>2020-10-11T12:01:48Z</time>
      </trkpt>
      <trkpt lat="49.59833" lon="4.95485">
        <ele>184.23</ele>
        <time>2020-10-11T12:01:59Z</time>
      </trkpt>
      <trkpt lat="49.59809" lon="4.95487">
        <ele>183.75</ele>
        <time>2020-10-11T12:02:18Z</time>
      </trkpt>
      <trkpt lat="49.59784" lon="4.95494">
        <ele>183.27</ele>
        <time>2020-10-11T12:02:39Z</time>
      </trkpt>
      <trkpt lat="49.59765" lon="4.95495">
        <ele>183.75</ele>
        <time>2020-10-11T12:02:53Z</time>
      </trkpt>
      <trkpt lat="49.59743" lon="4.95495">
        <ele>185.67</ele>
        <time>2020-10-11T12:03:12Z</time>
      </trkpt>
      <trkpt lat="49.5972" lon="4.95494">
        <ele>189.04</ele>
        <time>2020-10-11T12:03:32Z</time>
      </trkpt>
      <trkpt lat="49.59702" lon="4.95491">
        <ele>187.59</ele>
        <time>2020-10-11T12:03:49Z</time>
      </trkpt>
      <trkpt lat="49.59679" lon="4.95492">
        <ele>188.56</ele>
        <time>2020-10-11T12:04:07Z</time>
      </trkpt>
      <trkpt lat="49.59655" lon="4.95488">
        <ele>190.48</ele>
        <time>2020-10-11T12:04:26Z</time>
      </trkpt>
      <trkpt lat="49.59631" lon="4.95487">
        <ele>191.44</ele>
        <time>2020-10-11T12:04:46Z</time>
      </trkpt>
      <trkpt lat="49.59612" lon="4.95487">
        <ele>191.92</ele>
        <time>2020-10-11T12:05:02Z</time>
      </trkpt>
      <trkpt lat="49.59594" lon="4.95484">
        <ele>192.88</ele>
        <time>2020-10-11T12:05:18Z</time>
      </trkpt>
      <trkpt lat="49.59574" lon="4.95486">
        <ele>193.84</ele>
        <time>2020-10-11T12:05:35Z</time>
      </trkpt>
      <trkpt lat="49.59552" lon="4.95492">
        <ele>193.84</ele>
        <time>2020-10-11T12:05:54Z</time>
      </trkpt>
      <trkpt lat="49.59531" lon="4.95497">
        <ele>194.32</ele>
        <time>2020-10-11T12:06:11Z</time>
      </trkpt>
      <trkpt lat="49.59505" lon="4.95501">
        <ele>194.32</ele>
        <time>2020-10-11T12:06:32Z</time>
      </trkpt>
      <trkpt lat="49.59488" lon="4.95505">
        <ele>193.84</ele>
        <time>2020-10-11T12:06:49Z</time>
      </trkpt>
      <trkpt lat="49.59468" lon="4.95503">
        <ele>193.84</ele>
        <time>2020-10-11T12:07:05Z</time>
      </trkpt>
      <trkpt lat="49.59448" lon="4.95499">
        <ele>195.28</ele>
        <time>2020-10-11T12:07:21Z</time>
      </trkpt>
      <trkpt lat="49.59429" lon="4.95491">
        <ele>197.21</ele>
        <time>2020-10-11T12:07:38Z</time>
      </trkpt>
      <trkpt lat="49.59409" lon="4.95478">
        <ele>198.17</ele>
        <time>2020-10-11T12:07:58Z</time>
      </trkpt>
      <trkpt lat="49.59393" lon="4.95467">
        <ele>198.65</ele>
        <time>2020-10-11T12:08:14Z</time>
      </trkpt>
      <trkpt lat="49.59371" lon="4.95452">
        <ele>196.73</ele>
        <time>2020-10-11T12:08:34Z</time>
      </trkpt>
      <trkpt lat="49.59353" lon="4.95438">
        <ele>197.21</ele>
        <time>2020-10-11T12:08:51Z</time>
      </trkpt>
      <trkpt lat="49.59333" lon="4.95423">
        <ele>195.77</ele>
        <time>2020-10-11T12:09:09Z</time>
      </trkpt>
      <trkpt lat="49.59312" lon="4.95409">
        <ele>191.92</ele>
        <time>2020-10-11T12:09:28Z</time>
      </trkpt>
      <trkpt lat="49.5929" lon="4.95407">
        <ele>189.52</ele>
        <time>2020-10-11T12:09:47Z</time>
      </trkpt>
      <trkpt lat="49.59267" lon="4.95407">
        <ele>187.59</ele>
        <time>2020-10-11T12:10:06Z</time>
      </trkpt>
      <trkpt lat="49.59244" lon="4.9541">
        <ele>188.08</ele>
        <time>2020-10-11T12:10:25Z</time>
      </trkpt>
      <trkpt lat="49.5922" lon="4.95413">
        <ele>188.56</ele>
        <time>2020-10-11T12:10:45Z</time>
      </trkpt>
      <trkpt lat="49.59195" lon="4.95416">
        <ele>189.04</ele>
        <time>2020-10-11T12:11:06Z</time>
      </trkpt>
      <trkpt lat="49.5917" lon="4.95419">
        <ele>188.08</ele>
        <time>2020-10-11T12:11:27Z</time>
      </trkpt>
      <trkpt lat="49.59147" lon="4.95419">
        <ele>187.11</ele>
        <time>2020-10-11T12:11:46Z</time>
      </trkpt>
      <trkpt lat="49.59124" lon="4.95419">
        <ele>187.59</ele>
        <time>2020-10-11T12:12:06Z</time>
      </trkpt>
      <trkpt lat="49.59097" lon="4.95419">
        <ele>191.44</ele>
        <time>2020-10-11T12:12:28Z</time>
      </trkpt>
      <trkpt lat="49.59077" lon="4.95419">
        <ele>193.84</ele>
        <time>2020-10-11T12:12:46Z</time>
      </trkpt>
      <trkpt lat="49.59051" lon="4.9542">
        <ele>196.25</ele>
        <time>2020-10-11T12:13:07Z</time>
      </trkpt>
      <trkpt lat="49.59025" lon="4.95419">
        <ele>198.17</ele>
        <time>2020-10-11T12:13:29Z</time>
      </trkpt>
      <trkpt lat="49.59014" lon="4.9542">
        <ele>198.17</ele>
        <time>2020-10-11T12:13:38Z</time>
      </trkpt>
      <trkpt lat="49.59004" lon="4.9543">
        <ele>198.65</ele>
        <time>2020-10-11T12:13:50Z</time>
      </trkpt>
      <trkpt lat="49.59002" lon="4.95456">
        <ele>196.25</ele>
        <time>2020-10-11T12:14:06Z</time>
      </trkpt>
      <trkpt lat="49.59008" lon="4.95486">
        <ele>190.48</ele>
        <time>2020-10-11T12:14:25Z</time>
      </trkpt>
      <trkpt lat="49.59012" lon="4.95519">
        <ele>187.59</ele>
        <time>2020-10-11T12:14:45Z</time>
      </trkpt>
      <trkpt lat="49.59016" lon="4.95557">
        <ele>189.52</ele>
        <time>2020-10-11T12:15:06Z</time>
      </trkpt>
      <trkpt lat="49.59021" lon="4.95591">
        <ele>190.48</ele>
        <time>2020-10-11T12:15:25Z</time>
      </trkpt>
      <trkpt lat="49.59021" lon="4.95595">
        <ele>190.48</ele>
        <time>2020-10-11T12:15:27Z</time>
      </trkpt>
      <trkpt lat="49.59025" lon="4.95624">
        <ele>190.48</ele>
        <time>2020-10-11T12:15:44Z</time>
      </trkpt>
      <trkpt lat="49.59028" lon="4.95654">
        <ele>190.48</ele>
        <time>2020-10-11T12:16:02Z</time>
      </trkpt>
      <trkpt lat="49.59033" lon="4.95688">
        <ele>191.44</ele>
        <time>2020-10-11T12:16:21Z</time>
      </trkpt>
      <trkpt lat="49.59034" lon="4.95724">
        <ele>191.92</ele>
        <time>2020-10-11T12:16:41Z</time>
      </trkpt>
      <trkpt lat="49.59035" lon="4.95733">
        <ele>191.44</ele>
        <time>2020-10-11T12:16:55Z</time>
      </trkpt>
      <trkpt lat="49.59038" lon="4.95739">
        <ele>190.96</ele>
        <time>2020-10-11T12:17:00Z</time>
      </trkpt>
      <trkpt lat="49.59044" lon="4.95769">
        <ele>191.44</ele>
        <time>2020-10-11T12:17:17Z</time>
      </trkpt>
      <trkpt lat="49.59046" lon="4.95778">
        <ele>191.44</ele>
        <time>2020-10-11T12:17:22Z</time>
      </trkpt>
      <trkpt lat="49.5905" lon="4.958">
        <ele>191.92</ele>
        <time>2020-10-11T12:17:36Z</time>
      </trkpt>
      <trkpt lat="49.59048" lon="4.9581">
        <ele>193.84</ele>
        <time>2020-10-11T12:17:43Z</time>
      </trkpt>
      <trkpt lat="49.59036" lon="4.95837">
        <ele>196.73</ele>
        <time>2020-10-11T12:18:00Z</time>
      </trkpt>
      <trkpt lat="49.59035" lon="4.95844">
        <ele>198.65</ele>
        <time>2020-10-11T12:18:16Z</time>
      </trkpt>
      <trkpt lat="49.59034" lon="4.9586">
        <ele>199.61</ele>
        <time>2020-10-11T12:18:33Z</time>
      </trkpt>
      <trkpt lat="49.59032" lon="4.95887">
        <ele>199.13</ele>
        <time>2020-10-11T12:18:51Z</time>
      </trkpt>
      <trkpt lat="49.5903" lon="4.95912">
        <ele>199.61</ele>
        <time>2020-10-11T12:19:06Z</time>
      </trkpt>
      <trkpt lat="49.59031" lon="4.95947">
        <ele>200.57</ele>
        <time>2020-10-11T12:19:27Z</time>
      </trkpt>
      <trkpt lat="49.59031" lon="4.9596">
        <ele>201.05</ele>
        <time>2020-10-11T12:19:35Z</time>
      </trkpt>
      <trkpt lat="49.59037" lon="4.95999">
        <ele>199.61</ele>
        <time>2020-10-11T12:19:57Z</time>
      </trkpt>
      <trkpt lat="49.5904" lon="4.96032">
        <ele>199.61</ele>
        <time>2020-10-11T12:20:16Z</time>
      </trkpt>
      <trkpt lat="49.59045" lon="4.96063">
        <ele>199.61</ele>
        <time>2020-10-11T12:20:34Z</time>
      </trkpt>
      <trkpt lat="49.59053" lon="4.96099">
        <ele>200.09</ele>
        <time>2020-10-11T12:20:56Z</time>
      </trkpt>
      <trkpt lat="49.59064" lon="4.96131">
        <ele>199.61</ele>
        <time>2020-10-11T12:21:18Z</time>
      </trkpt>
      <trkpt lat="49.59074" lon="4.96161">
        <ele>202.01</ele>
        <time>2020-10-11T12:21:37Z</time>
      </trkpt>
      <trkpt lat="49.59081" lon="4.9618">
        <ele>203.94</ele>
        <time>2020-10-11T12:21:50Z</time>
      </trkpt>
      <trkpt lat="49.59092" lon="4.96211">
        <ele>207.3</ele>
        <time>2020-10-11T12:22:12Z</time>
      </trkpt>
      <trkpt lat="49.59101" lon="4.96234">
        <ele>209.22</ele>
        <time>2020-10-11T12:22:30Z</time>
      </trkpt>
      <trkpt lat="49.59114" lon="4.96264">
        <ele>213.07</ele>
        <time>2020-10-11T12:22:52Z</time>
      </trkpt>
      <trkpt lat="49.59124" lon="4.96291">
        <ele>217.88</ele>
        <time>2020-10-11T12:23:13Z</time>
      </trkpt>
      <trkpt lat="49.59132" lon="4.96325">
        <ele>225.09</ele>
        <time>2020-10-11T12:23:35Z</time>
      </trkpt>
      <trkpt lat="49.59139" lon="4.96351">
        <ele>235.18</ele>
        <time>2020-10-11T12:23:56Z</time>
      </trkpt>
      <trkpt lat="49.59143" lon="4.96385">
        <ele>240.95</ele>
        <time>2020-10-11T12:24:20Z</time>
      </trkpt>
      <trkpt lat="49.59146" lon="4.96412">
        <ele>241.91</ele>
        <time>2020-10-11T12:24:39Z</time>
      </trkpt>
      <trkpt lat="49.59145" lon="4.96421">
        <ele>242.39</ele>
        <time>2020-10-11T12:25:04Z</time>
      </trkpt>
      <trkpt lat="49.59146" lon="4.96446">
        <ele>244.31</ele>
        <time>2020-10-11T12:25:20Z</time>
      </trkpt>
      <trkpt lat="49.59149" lon="4.96471">
        <ele>245.75</ele>
        <time>2020-10-11T12:25:38Z</time>
      </trkpt>
      <trkpt lat="49.5915" lon="4.965">
        <ele>248.16</ele>
        <time>2020-10-11T12:25:58Z</time>
      </trkpt>
      <trkpt lat="49.59151" lon="4.96529">
        <ele>249.12</ele>
        <time>2020-10-11T12:26:18Z</time>
      </trkpt>
      <trkpt lat="49.59149" lon="4.96555">
        <ele>252</ele>
        <time>2020-10-11T12:26:36Z</time>
      </trkpt>
      <trkpt lat="49.59146" lon="4.96584">
        <ele>254.41</ele>
        <time>2020-10-11T12:26:56Z</time>
      </trkpt>
      <trkpt lat="49.59143" lon="4.96608">
        <ele>257.77</ele>
        <time>2020-10-11T12:27:13Z</time>
      </trkpt>
      <trkpt lat="49.5914" lon="4.96638">
        <ele>259.21</ele>
        <time>2020-10-11T12:27:34Z</time>
      </trkpt>
      <trkpt lat="49.59136" lon="4.96668">
        <ele>262.1</ele>
        <time>2020-10-11T12:27:53Z</time>
      </trkpt>
      <trkpt lat="49.59133" lon="4.96698">
        <ele>265.46</ele>
        <time>2020-10-11T12:28:14Z</time>
      </trkpt>
      <trkpt lat="49.59133" lon="4.96728">
        <ele>269.79</ele>
        <time>2020-10-11T12:28:33Z</time>
      </trkpt>
      <trkpt lat="49.59134" lon="4.96759">
        <ele>273.63</ele>
        <time>2020-10-11T12:28:52Z</time>
      </trkpt>
      <trkpt lat="49.59136" lon="4.96795">
        <ele>276.52</ele>
        <time>2020-10-11T12:29:14Z</time>
      </trkpt>
      <trkpt lat="49.5914" lon="4.96828">
        <ele>278.44</ele>
        <time>2020-10-11T12:29:33Z</time>
      </trkpt>
      <trkpt lat="49.59145" lon="4.96856">
        <ele>280.84</ele>
        <time>2020-10-11T12:29:50Z</time>
      </trkpt>
      <trkpt lat="49.59149" lon="4.96887">
        <ele>281.8</ele>
        <time>2020-10-11T12:30:09Z</time>
      </trkpt>
      <trkpt lat="49.59153" lon="4.96919">
        <ele>283.73</ele>
        <time>2020-10-11T12:30:29Z</time>
      </trkpt>
      <trkpt lat="49.59157" lon="4.96951">
        <ele>286.13</ele>
        <time>2020-10-11T12:30:48Z</time>
      </trkpt>
      <trkpt lat="49.5916" lon="4.96985">
        <ele>287.09</ele>
        <time>2020-10-11T12:31:09Z</time>
      </trkpt>
      <trkpt lat="49.59165" lon="4.97019">
        <ele>287.09</ele>
        <time>2020-10-11T12:31:29Z</time>
      </trkpt>
      <trkpt lat="49.5917" lon="4.97053">
        <ele>288.53</ele>
        <time>2020-10-11T12:31:49Z</time>
      </trkpt>
      <trkpt lat="49.59175" lon="4.97086">
        <ele>289.97</ele>
        <time>2020-10-11T12:32:09Z</time>
      </trkpt>
      <trkpt lat="49.59176" lon="4.97113">
        <ele>290.46</ele>
        <time>2020-10-11T12:32:25Z</time>
      </trkpt>
      <trkpt lat="49.59181" lon="4.97149">
        <ele>290.46</ele>
        <time>2020-10-11T12:32:47Z</time>
      </trkpt>
      <trkpt lat="49.59185" lon="4.97182">
        <ele>290.46</ele>
        <time>2020-10-11T12:33:07Z</time>
      </trkpt>
      <trkpt lat="49.5919" lon="4.9722">
        <ele>292.38</ele>
        <time>2020-10-11T12:33:30Z</time>
      </trkpt>
      <trkpt lat="49.59195" lon="4.97252">
        <ele>293.82</ele>
        <time>2020-10-11T12:33:50Z</time>
      </trkpt>
      <trkpt lat="49.59199" lon="4.9729">
        <ele>294.3</ele>
        <time>2020-10-11T12:34:12Z</time>
      </trkpt>
      <trkpt lat="49.59205" lon="4.97331">
        <ele>295.74</ele>
        <time>2020-10-11T12:34:36Z</time>
      </trkpt>
      <trkpt lat="49.59209" lon="4.97367">
        <ele>296.22</ele>
        <time>2020-10-11T12:34:57Z</time>
      </trkpt>
      <trkpt lat="49.59213" lon="4.97407">
        <ele>297.67</ele>
        <time>2020-10-11T12:35:21Z</time>
      </trkpt>
      <trkpt lat="49.59217" lon="4.97444">
        <ele>298.15</ele>
        <time>2020-10-11T12:35:43Z</time>
      </trkpt>
      <trkpt lat="49.5922" lon="4.97483">
        <ele>298.63</ele>
        <time>2020-10-11T12:36:05Z</time>
      </trkpt>
      <trkpt lat="49.59225" lon="4.97519">
        <ele>300.55</ele>
        <time>2020-10-11T12:36:27Z</time>
      </trkpt>
      <trkpt lat="49.59229" lon="4.97552">
        <ele>300.07</ele>
        <time>2020-10-11T12:36:47Z</time>
      </trkpt>
      <trkpt lat="49.59233" lon="4.97581">
        <ele>300.55</ele>
        <time>2020-10-11T12:37:05Z</time>
      </trkpt>
      <trkpt lat="49.59237" lon="4.9761">
        <ele>300.07</ele>
        <time>2020-10-11T12:37:23Z</time>
      </trkpt>
      <trkpt lat="49.59242" lon="4.97643">
        <ele>300.07</ele>
        <time>2020-10-11T12:37:44Z</time>
      </trkpt>
      <trkpt lat="49.59247" lon="4.97656">
        <ele>299.59</ele>
        <time>2020-10-11T12:37:57Z</time>
      </trkpt>
      <trkpt lat="49.59246" lon="4.97657">
        <ele>303.91</ele>
        <time>2020-10-11T12:38:13Z</time>
      </trkpt>
      <trkpt lat="49.59247" lon="4.97656">
        <ele>303.91</ele>
        <time>2020-10-11T12:38:15Z</time>
      </trkpt>
      <trkpt lat="49.59262" lon="4.97639">
        <ele>303.91</ele>
        <time>2020-10-11T12:38:34Z</time>
      </trkpt>
      <trkpt lat="49.5928" lon="4.97615">
        <ele>304.88</ele>
        <time>2020-10-11T12:38:56Z</time>
      </trkpt>
      <trkpt lat="49.59297" lon="4.97593">
        <ele>305.36</ele>
        <time>2020-10-11T12:39:16Z</time>
      </trkpt>
      <trkpt lat="49.59315" lon="4.97569">
        <ele>304.39</ele>
        <time>2020-10-11T12:39:37Z</time>
      </trkpt>
      <trkpt lat="49.59334" lon="4.97541">
        <ele>301.99</ele>
        <time>2020-10-11T12:40:01Z</time>
      </trkpt>
      <trkpt lat="49.59353" lon="4.97514">
        <ele>300.55</ele>
        <time>2020-10-11T12:40:25Z</time>
      </trkpt>
      <trkpt lat="49.59371" lon="4.97488">
        <ele>297.18</ele>
        <time>2020-10-11T12:40:48Z</time>
      </trkpt>
      <trkpt lat="49.59389" lon="4.97461">
        <ele>296.22</ele>
        <time>2020-10-11T12:41:11Z</time>
      </trkpt>
      <trkpt lat="49.59404" lon="4.97434">
        <ele>294.3</ele>
        <time>2020-10-11T12:41:32Z</time>
      </trkpt>
      <trkpt lat="49.59408" lon="4.97434">
        <ele>294.3</ele>
        <time>2020-10-11T12:41:48Z</time>
      </trkpt>
      <trkpt lat="49.59409" lon="4.97435">
        <ele>292.86</ele>
        <time>2020-10-11T12:42:16Z</time>
      </trkpt>
      <trkpt lat="49.59409" lon="4.97437">
        <ele>290.94</ele>
        <time>2020-10-11T12:42:55Z</time>
      </trkpt>
      <trkpt lat="49.59409" lon="4.97437">
        <ele>289.97</ele>
        <time>2020-10-11T12:43:16Z</time>
      </trkpt>
      <trkpt lat="49.59409" lon="4.97437">
        <ele>289.97</ele>
        <time>2020-10-11T12:43:38Z</time>
      </trkpt>
      <trkpt lat="49.59408" lon="4.97436">
        <ele>289.97</ele>
        <time>2020-10-11T12:44:08Z</time>
      </trkpt>
      <trkpt lat="49.59414" lon="4.97438">
        <ele>290.46</ele>
        <time>2020-10-11T12:44:19Z</time>
      </trkpt>
      <trkpt lat="49.59428" lon="4.97463">
        <ele>292.38</ele>
        <time>2020-10-11T12:44:38Z</time>
      </trkpt>
      <trkpt lat="49.59442" lon="4.97486">
        <ele>292.86</ele>
        <time>2020-10-11T12:44:56Z</time>
      </trkpt>
      <trkpt lat="49.59458" lon="4.97513">
        <ele>292.38</ele>
        <time>2020-10-11T12:45:18Z</time>
      </trkpt>
      <trkpt lat="49.59474" lon="4.97541">
        <ele>292.38</ele>
        <time>2020-10-11T12:45:40Z</time>
      </trkpt>
      <trkpt lat="49.59487" lon="4.97567">
        <ele>292.86</ele>
        <time>2020-10-11T12:45:58Z</time>
      </trkpt>
      <trkpt lat="49.59504" lon="4.97595">
        <ele>292.86</ele>
        <time>2020-10-11T12:46:20Z</time>
      </trkpt>
      <trkpt lat="49.59522" lon="4.97626">
        <ele>295.26</ele>
        <time>2020-10-11T12:46:43Z</time>
      </trkpt>
      <trkpt lat="49.59531" lon="4.97641">
        <ele>295.26</ele>
        <time>2020-10-11T12:46:58Z</time>
      </trkpt>
      <trkpt lat="49.59547" lon="4.97672">
        <ele>295.26</ele>
        <time>2020-10-11T12:47:19Z</time>
      </trkpt>
      <trkpt lat="49.59562" lon="4.97694">
        <ele>294.78</ele>
        <time>2020-10-11T12:47:37Z</time>
      </trkpt>
      <trkpt lat="49.59571" lon="4.97717">
        <ele>293.82</ele>
        <time>2020-10-11T12:47:55Z</time>
      </trkpt>
      <trkpt lat="49.5958" lon="4.97739">
        <ele>292.86</ele>
        <time>2020-10-11T12:48:12Z</time>
      </trkpt>
      <trkpt lat="49.59587" lon="4.97763">
        <ele>284.69</ele>
        <time>2020-10-11T12:48:29Z</time>
      </trkpt>
      <trkpt lat="49.59597" lon="4.97786">
        <ele>279.4</ele>
        <time>2020-10-11T12:48:47Z</time>
      </trkpt>
      <trkpt lat="49.59607" lon="4.9781">
        <ele>276.52</ele>
        <time>2020-10-11T12:49:04Z</time>
      </trkpt>
      <trkpt lat="49.59619" lon="4.97835">
        <ele>275.07</ele>
        <time>2020-10-11T12:49:23Z</time>
      </trkpt>
      <trkpt lat="49.59632" lon="4.97862">
        <ele>277.48</ele>
        <time>2020-10-11T12:49:42Z</time>
      </trkpt>
      <trkpt lat="49.59644" lon="4.97884">
        <ele>280.36</ele>
        <time>2020-10-11T12:49:58Z</time>
      </trkpt>
      <trkpt lat="49.59653" lon="4.979">
        <ele>282.77</ele>
        <time>2020-10-11T12:50:13Z</time>
      </trkpt>
      <trkpt lat="49.59666" lon="4.97926">
        <ele>286.13</ele>
        <time>2020-10-11T12:50:33Z</time>
      </trkpt>
      <trkpt lat="49.59678" lon="4.97955">
        <ele>284.69</ele>
        <time>2020-10-11T12:50:54Z</time>
      </trkpt>
      <trkpt lat="49.59689" lon="4.97978">
        <ele>283.73</ele>
        <time>2020-10-11T12:51:10Z</time>
      </trkpt>
      <trkpt lat="49.59701" lon="4.98005">
        <ele>284.21</ele>
        <time>2020-10-11T12:51:29Z</time>
      </trkpt>
      <trkpt lat="49.5971" lon="4.98026">
        <ele>285.65</ele>
        <time>2020-10-11T12:51:44Z</time>
      </trkpt>
      <trkpt lat="49.59717" lon="4.9804">
        <ele>288.05</ele>
        <time>2020-10-11T12:51:58Z</time>
      </trkpt>
      <trkpt lat="49.59728" lon="4.98066">
        <ele>286.61</ele>
        <time>2020-10-11T12:52:16Z</time>
      </trkpt>
      <trkpt lat="49.59733" lon="4.98079">
        <ele>288.53</ele>
        <time>2020-10-11T12:52:32Z</time>
      </trkpt>
      <trkpt lat="49.59737" lon="4.98086">
        <ele>289.01</ele>
        <time>2020-10-11T12:52:49Z</time>
      </trkpt>
      <trkpt lat="49.5974" lon="4.98094">
        <ele>288.53</ele>
        <time>2020-10-11T12:53:03Z</time>
      </trkpt>
      <trkpt lat="49.59745" lon="4.98122">
        <ele>282.28</ele>
        <time>2020-10-11T12:53:17Z</time>
      </trkpt>
      <trkpt lat="49.59756" lon="4.9816">
        <ele>282.28</ele>
        <time>2020-10-11T12:53:33Z</time>
      </trkpt>
      <trkpt lat="49.5976" lon="4.98179">
        <ele>277.96</ele>
        <time>2020-10-11T12:53:44Z</time>
      </trkpt>
      <trkpt lat="49.59769" lon="4.98205">
        <ele>275.07</ele>
        <time>2020-10-11T12:54:00Z</time>
      </trkpt>
      <trkpt lat="49.59775" lon="4.98227">
        <ele>271.71</ele>
        <time>2020-10-11T12:54:15Z</time>
      </trkpt>
      <trkpt lat="49.5978" lon="4.98252">
        <ele>267.38</ele>
        <time>2020-10-11T12:54:32Z</time>
      </trkpt>
      <trkpt lat="49.59787" lon="4.98278">
        <ele>267.38</ele>
        <time>2020-10-11T12:54:48Z</time>
      </trkpt>
      <trkpt lat="49.59791" lon="4.98292">
        <ele>267.38</ele>
        <time>2020-10-11T12:55:04Z</time>
      </trkpt>
      <trkpt lat="49.59797" lon="4.98315">
        <ele>262.58</ele>
        <time>2020-10-11T12:55:19Z</time>
      </trkpt>
      <trkpt lat="49.59806" lon="4.98334">
        <ele>265.94</ele>
        <time>2020-10-11T12:55:34Z</time>
      </trkpt>
      <trkpt lat="49.59811" lon="4.98347">
        <ele>267.86</ele>
        <time>2020-10-11T12:55:44Z</time>
      </trkpt>
      <trkpt lat="49.5982" lon="4.98358">
        <ele>274.11</ele>
        <time>2020-10-11T12:55:59Z</time>
      </trkpt>
      <trkpt lat="49.59828" lon="4.98367">
        <ele>281.32</ele>
        <time>2020-10-11T12:56:15Z</time>
      </trkpt>
      <trkpt lat="49.59835" lon="4.98375">
        <ele>286.61</ele>
        <time>2020-10-11T12:56:28Z</time>
      </trkpt>
      <trkpt lat="49.59842" lon="4.98383">
        <ele>292.86</ele>
        <time>2020-10-11T12:56:42Z</time>
      </trkpt>
      <trkpt lat="49.59848" lon="4.98391">
        <ele>296.7</ele>
        <time>2020-10-11T12:56:55Z</time>
      </trkpt>
      <trkpt lat="49.59853" lon="4.98402">
        <ele>299.11</ele>
        <time>2020-10-11T12:57:10Z</time>
      </trkpt>
      <trkpt lat="49.59861" lon="4.98417">
        <ele>301.99</ele>
        <time>2020-10-11T12:57:27Z</time>
      </trkpt>
      <trkpt lat="49.5987" lon="4.98435">
        <ele>302.47</ele>
        <time>2020-10-11T12:57:45Z</time>
      </trkpt>
      <trkpt lat="49.59877" lon="4.98447">
        <ele>304.39</ele>
        <time>2020-10-11T12:57:59Z</time>
      </trkpt>
      <trkpt lat="49.59884" lon="4.98462">
        <ele>306.8</ele>
        <time>2020-10-11T12:58:15Z</time>
      </trkpt>
      <trkpt lat="49.59888" lon="4.98474">
        <ele>306.32</ele>
        <time>2020-10-11T12:58:27Z</time>
      </trkpt>
      <trkpt lat="49.59893" lon="4.98489">
        <ele>303.91</ele>
        <time>2020-10-11T12:58:43Z</time>
      </trkpt>
      <trkpt lat="49.59899" lon="4.98501">
        <ele>301.51</ele>
        <time>2020-10-11T12:58:58Z</time>
      </trkpt>
      <trkpt lat="49.59906" lon="4.98511">
        <ele>299.59</ele>
        <time>2020-10-11T12:59:10Z</time>
      </trkpt>
      <trkpt lat="49.59912" lon="4.9852">
        <ele>298.63</ele>
        <time>2020-10-11T12:59:22Z</time>
      </trkpt>
      <trkpt lat="49.59919" lon="4.98529">
        <ele>296.22</ele>
        <time>2020-10-11T12:59:35Z</time>
      </trkpt>
      <trkpt lat="49.59926" lon="4.98538">
        <ele>293.82</ele>
        <time>2020-10-11T12:59:48Z</time>
      </trkpt>
      <trkpt lat="49.59935" lon="4.98548">
        <ele>291.42</ele>
        <time>2020-10-11T13:00:04Z</time>
      </trkpt>
      <trkpt lat="49.59947" lon="4.98552">
        <ele>284.69</ele>
        <time>2020-10-11T13:00:20Z</time>
      </trkpt>
      <trkpt lat="49.59971" lon="4.98559">
        <ele>270.27</ele>
        <time>2020-10-11T13:00:35Z</time>
      </trkpt>
      <trkpt lat="49.59988" lon="4.98572">
        <ele>260.17</ele>
        <time>2020-10-11T13:00:49Z</time>
      </trkpt>
      <trkpt lat="49.60004" lon="4.98586">
        <ele>257.29</ele>
        <time>2020-10-11T13:01:03Z</time>
      </trkpt>
      <trkpt lat="49.6002" lon="4.986">
        <ele>257.29</ele>
        <time>2020-10-11T13:01:17Z</time>
      </trkpt>
      <trkpt lat="49.60045" lon="4.98623">
        <ele>255.85</ele>
        <time>2020-10-11T13:01:33Z</time>
      </trkpt>
      <trkpt lat="49.60056" lon="4.98638">
        <ele>255.85</ele>
        <time>2020-10-11T13:01:46Z</time>
      </trkpt>
      <trkpt lat="49.6007" lon="4.98654">
        <ele>257.77</ele>
        <time>2020-10-11T13:02:00Z</time>
      </trkpt>
      <trkpt lat="49.60088" lon="4.9867">
        <ele>259.21</ele>
        <time>2020-10-11T13:02:17Z</time>
      </trkpt>
      <trkpt lat="49.60102" lon="4.98681">
        <ele>262.1</ele>
        <time>2020-10-11T13:02:32Z</time>
      </trkpt>
      <trkpt lat="49.6012" lon="4.98702">
        <ele>259.69</ele>
        <time>2020-10-11T13:02:47Z</time>
      </trkpt>
      <trkpt lat="49.60128" lon="4.9871">
        <ele>261.14</ele>
        <time>2020-10-11T13:03:01Z</time>
      </trkpt>
      <trkpt lat="49.60146" lon="4.98727">
        <ele>257.29</ele>
        <time>2020-10-11T13:03:16Z</time>
      </trkpt>
      <trkpt lat="49.60169" lon="4.98739">
        <ele>252.48</ele>
        <time>2020-10-11T13:03:29Z</time>
      </trkpt>
      <trkpt lat="49.60188" lon="4.98748">
        <ele>249.6</ele>
        <time>2020-10-11T13:03:43Z</time>
      </trkpt>
      <trkpt lat="49.602" lon="4.98751">
        <ele>253.93</ele>
        <time>2020-10-11T13:03:56Z</time>
      </trkpt>
      <trkpt lat="49.60215" lon="4.98756">
        <ele>260.17</ele>
        <time>2020-10-11T13:04:11Z</time>
      </trkpt>
      <trkpt lat="49.60242" lon="4.98759">
        <ele>272.67</ele>
        <time>2020-10-11T13:04:27Z</time>
      </trkpt>
      <trkpt lat="49.60254" lon="4.98766">
        <ele>278.44</ele>
        <time>2020-10-11T13:04:38Z</time>
      </trkpt>
      <trkpt lat="49.6026" lon="4.98769">
        <ele>279.88</ele>
        <time>2020-10-11T13:04:44Z</time>
      </trkpt>
      <trkpt lat="49.60276" lon="4.98775">
        <ele>280.84</ele>
        <time>2020-10-11T13:04:57Z</time>
      </trkpt>
      <trkpt lat="49.60287" lon="4.98778">
        <ele>281.8</ele>
        <time>2020-10-11T13:05:09Z</time>
      </trkpt>
      <trkpt lat="49.60303" lon="4.98786">
        <ele>284.21</ele>
        <time>2020-10-11T13:05:23Z</time>
      </trkpt>
      <trkpt lat="49.60326" lon="4.98795">
        <ele>280.36</ele>
        <time>2020-10-11T13:05:39Z</time>
      </trkpt>
      <trkpt lat="49.60337" lon="4.98801">
        <ele>282.77</ele>
        <time>2020-10-11T13:05:54Z</time>
      </trkpt>
      <trkpt lat="49.60344" lon="4.98805">
        <ele>283.73</ele>
        <time>2020-10-11T13:06:07Z</time>
      </trkpt>
      <trkpt lat="49.60351" lon="4.98809">
        <ele>283.25</ele>
        <time>2020-10-11T13:06:19Z</time>
      </trkpt>
      <trkpt lat="49.60365" lon="4.98818">
        <ele>280.84</ele>
        <time>2020-10-11T13:06:34Z</time>
      </trkpt>
      <trkpt lat="49.60381" lon="4.98826">
        <ele>280.84</ele>
        <time>2020-10-11T13:06:48Z</time>
      </trkpt>
      <trkpt lat="49.60395" lon="4.98833">
        <ele>278.44</ele>
        <time>2020-10-11T13:07:01Z</time>
      </trkpt>
      <trkpt lat="49.60408" lon="4.98842">
        <ele>280.36</ele>
        <time>2020-10-11T13:07:17Z</time>
      </trkpt>
      <trkpt lat="49.60418" lon="4.98847">
        <ele>283.25</ele>
        <time>2020-10-11T13:07:32Z</time>
      </trkpt>
      <trkpt lat="49.60432" lon="4.98856">
        <ele>285.65</ele>
        <time>2020-10-11T13:07:48Z</time>
      </trkpt>
      <trkpt lat="49.6045" lon="4.98868">
        <ele>284.69</ele>
        <time>2020-10-11T13:08:03Z</time>
      </trkpt>
      <trkpt lat="49.60461" lon="4.98875">
        <ele>284.69</ele>
        <time>2020-10-11T13:08:18Z</time>
      </trkpt>
      <trkpt lat="49.60478" lon="4.98883">
        <ele>284.69</ele>
        <time>2020-10-11T13:08:34Z</time>
      </trkpt>
      <trkpt lat="49.60493" lon="4.98888">
        <ele>287.57</ele>
        <time>2020-10-11T13:08:48Z</time>
      </trkpt>
      <trkpt lat="49.60507" lon="4.98892">
        <ele>292.38</ele>
        <time>2020-10-11T13:09:03Z</time>
      </trkpt>
      <trkpt lat="49.6052" lon="4.98895">
        <ele>294.78</ele>
        <time>2020-10-11T13:09:18Z</time>
      </trkpt>
      <trkpt lat="49.60534" lon="4.989">
        <ele>296.22</ele>
        <time>2020-10-11T13:09:30Z</time>
      </trkpt>
      <trkpt lat="49.60549" lon="4.98905">
        <ele>298.63</ele>
        <time>2020-10-11T13:09:44Z</time>
      </trkpt>
      <trkpt lat="49.60581" lon="4.989">
        <ele>299.59</ele>
        <time>2020-10-11T13:09:58Z</time>
      </trkpt>
      <trkpt lat="49.60615" lon="4.98882">
        <ele>294.78</ele>
        <time>2020-10-11T13:10:14Z</time>
      </trkpt>
      <trkpt lat="49.60638" lon="4.98858">
        <ele>291.9</ele>
        <time>2020-10-11T13:10:30Z</time>
      </trkpt>
      <trkpt lat="49.60655" lon="4.98839">
        <ele>291.42</ele>
        <time>2020-10-11T13:10:45Z</time>
      </trkpt>
      <trkpt lat="49.60669" lon="4.98818">
        <ele>295.26</ele>
        <time>2020-10-11T13:11:01Z</time>
      </trkpt>
      <trkpt lat="49.60678" lon="4.98805">
        <ele>301.03</ele>
        <time>2020-10-11T13:11:16Z</time>
      </trkpt>
      <trkpt lat="49.60686" lon="4.98785">
        <ele>299.59</ele>
        <time>2020-10-11T13:11:28Z</time>
      </trkpt>
      <trkpt lat="49.60698" lon="4.98764">
        <ele>302.47</ele>
        <time>2020-10-11T13:11:44Z</time>
      </trkpt>
      <trkpt lat="49.6071" lon="4.9874">
        <ele>303.43</ele>
        <time>2020-10-11T13:11:58Z</time>
      </trkpt>
      <trkpt lat="49.60721" lon="4.98719">
        <ele>302.95</ele>
        <time>2020-10-11T13:12:13Z</time>
      </trkpt>
      <trkpt lat="49.60732" lon="4.98695">
        <ele>303.43</ele>
        <time>2020-10-11T13:12:29Z</time>
      </trkpt>
      <trkpt lat="49.60742" lon="4.98681">
        <ele>301.51</ele>
        <time>2020-10-11T13:12:41Z</time>
      </trkpt>
      <trkpt lat="49.60749" lon="4.98671">
        <ele>299.59</ele>
        <time>2020-10-11T13:12:52Z</time>
      </trkpt>
      <trkpt lat="49.60759" lon="4.98649">
        <ele>298.15</ele>
        <time>2020-10-11T13:13:05Z</time>
      </trkpt>
      <trkpt lat="49.60762" lon="4.98632">
        <ele>299.11</ele>
        <time>2020-10-11T13:13:19Z</time>
      </trkpt>
      <trkpt lat="49.60769" lon="4.98609">
        <ele>296.22</ele>
        <time>2020-10-11T13:13:32Z</time>
      </trkpt>
      <trkpt lat="49.60776" lon="4.98592">
        <ele>295.74</ele>
        <time>2020-10-11T13:13:43Z</time>
      </trkpt>
      <trkpt lat="49.60785" lon="4.98576">
        <ele>293.34</ele>
        <time>2020-10-11T13:13:57Z</time>
      </trkpt>
      <trkpt lat="49.60793" lon="4.98563">
        <ele>294.3</ele>
        <time>2020-10-11T13:14:09Z</time>
      </trkpt>
      <trkpt lat="49.608" lon="4.98546">
        <ele>294.3</ele>
        <time>2020-10-11T13:14:20Z</time>
      </trkpt>
      <trkpt lat="49.60805" lon="4.98536">
        <ele>293.82</ele>
        <time>2020-10-11T13:14:32Z</time>
      </trkpt>
      <trkpt lat="49.60817" lon="4.98508">
        <ele>292.38</ele>
        <time>2020-10-11T13:14:47Z</time>
      </trkpt>
      <trkpt lat="49.60829" lon="4.98489">
        <ele>294.3</ele>
        <time>2020-10-11T13:15:03Z</time>
      </trkpt>
      <trkpt lat="49.60835" lon="4.98471">
        <ele>294.78</ele>
        <time>2020-10-11T13:15:14Z</time>
      </trkpt>
      <trkpt lat="49.60839" lon="4.98459">
        <ele>295.74</ele>
        <time>2020-10-11T13:15:20Z</time>
      </trkpt>
      <trkpt lat="49.60854" lon="4.98428">
        <ele>298.63</ele>
        <time>2020-10-11T13:15:35Z</time>
      </trkpt>
      <trkpt lat="49.60864" lon="4.98402">
        <ele>299.59</ele>
        <time>2020-10-11T13:15:50Z</time>
      </trkpt>
      <trkpt lat="49.60864" lon="4.984">
        <ele>299.59</ele>
        <time>2020-10-11T13:15:51Z</time>
      </trkpt>
      <trkpt lat="49.60876" lon="4.98377">
        <ele>299.11</ele>
        <time>2020-10-11T13:16:06Z</time>
      </trkpt>
      <trkpt lat="49.60884" lon="4.98358">
        <ele>299.59</ele>
        <time>2020-10-11T13:16:20Z</time>
      </trkpt>
      <trkpt lat="49.60889" lon="4.98351">
        <ele>300.55</ele>
        <time>2020-10-11T13:16:35Z</time>
      </trkpt>
      <trkpt lat="49.60896" lon="4.98336">
        <ele>300.07</ele>
        <time>2020-10-11T13:16:48Z</time>
      </trkpt>
      <trkpt lat="49.60902" lon="4.98325">
        <ele>300.07</ele>
        <time>2020-10-11T13:17:07Z</time>
      </trkpt>
      <trkpt lat="49.60902" lon="4.98329">
        <ele>297.67</ele>
        <time>2020-10-11T13:17:30Z</time>
      </trkpt>
      <trkpt lat="49.60903" lon="4.98331">
        <ele>297.18</ele>
        <time>2020-10-11T13:17:48Z</time>
      </trkpt>
      <trkpt lat="49.60904" lon="4.98332">
        <ele>298.15</ele>
        <time>2020-10-11T13:18:20Z</time>
      </trkpt>
      <trkpt lat="49.60903" lon="4.9833">
        <ele>300.55</ele>
        <time>2020-10-11T13:18:40Z</time>
      </trkpt>
      <trkpt lat="49.60902" lon="4.98328">
        <ele>300.07</ele>
        <time>2020-10-11T13:19:20Z</time>
      </trkpt>
      <trkpt lat="49.60902" lon="4.98326">
        <ele>301.03</ele>
        <time>2020-10-11T13:20:00Z</time>
      </trkpt>
      <trkpt lat="49.60901" lon="4.98324">
        <ele>301.51</ele>
        <time>2020-10-11T13:20:34Z</time>
      </trkpt>
      <trkpt lat="49.609" lon="4.98321">
        <ele>303.43</ele>
        <time>2020-10-11T13:21:16Z</time>
      </trkpt>
      <trkpt lat="49.60898" lon="4.98317">
        <ele>305.36</ele>
        <time>2020-10-11T13:21:53Z</time>
      </trkpt>
      <trkpt lat="49.60898" lon="4.98314">
        <ele>305.36</ele>
        <time>2020-10-11T13:22:26Z</time>
      </trkpt>
      <trkpt lat="49.609" lon="4.98322">
        <ele>303.43</ele>
        <time>2020-10-11T13:22:41Z</time>
      </trkpt>
      <trkpt lat="49.60898" lon="4.98326">
        <ele>301.99</ele>
        <time>2020-10-11T13:23:15Z</time>
      </trkpt>
      <trkpt lat="49.60899" lon="4.98324">
        <ele>301.99</ele>
        <time>2020-10-11T13:23:29Z</time>
      </trkpt>
      <trkpt lat="49.60897" lon="4.98322">
        <ele>301.03</ele>
        <time>2020-10-11T13:23:57Z</time>
      </trkpt>
      <trkpt lat="49.60898" lon="4.98321">
        <ele>301.03</ele>
        <time>2020-10-11T13:24:14Z</time>
      </trkpt>
      <trkpt lat="49.60899" lon="4.98321">
        <ele>301.03</ele>
        <time>2020-10-11T13:24:35Z</time>
      </trkpt>
      <trkpt lat="49.60899" lon="4.9832">
        <ele>301.51</ele>
        <time>2020-10-11T13:24:51Z</time>
      </trkpt>
      <trkpt lat="49.60898" lon="4.98315">
        <ele>302.95</ele>
        <time>2020-10-11T13:25:24Z</time>
      </trkpt>
      <trkpt lat="49.60897" lon="4.98312">
        <ele>304.39</ele>
        <time>2020-10-11T13:25:53Z</time>
      </trkpt>
      <trkpt lat="49.60897" lon="4.98311">
        <ele>304.88</ele>
        <time>2020-10-11T13:26:13Z</time>
      </trkpt>
      <trkpt lat="49.60899" lon="4.98307">
        <ele>304.88</ele>
        <time>2020-10-11T13:26:28Z</time>
      </trkpt>
      <trkpt lat="49.609" lon="4.98301">
        <ele>303.43</ele>
        <time>2020-10-11T13:26:44Z</time>
      </trkpt>
      <trkpt lat="49.60903" lon="4.98279">
        <ele>300.07</ele>
        <time>2020-10-11T13:27:01Z</time>
      </trkpt>
      <trkpt lat="49.60915" lon="4.9825">
        <ele>298.63</ele>
        <time>2020-10-11T13:27:15Z</time>
      </trkpt>
      <trkpt lat="49.60933" lon="4.9822">
        <ele>294.3</ele>
        <time>2020-10-11T13:27:31Z</time>
      </trkpt>
      <trkpt lat="49.60942" lon="4.98206">
        <ele>295.74</ele>
        <time>2020-10-11T13:27:47Z</time>
      </trkpt>
      <trkpt lat="49.60954" lon="4.98183">
        <ele>290.94</ele>
        <time>2020-10-11T13:28:02Z</time>
      </trkpt>
      <trkpt lat="49.6096" lon="4.98169">
        <ele>291.42</ele>
        <time>2020-10-11T13:28:18Z</time>
      </trkpt>
      <trkpt lat="49.60962" lon="4.98152">
        <ele>287.57</ele>
        <time>2020-10-11T13:28:34Z</time>
      </trkpt>
      <trkpt lat="49.60965" lon="4.98139">
        <ele>287.09</ele>
        <time>2020-10-11T13:28:49Z</time>
      </trkpt>
      <trkpt lat="49.60976" lon="4.98112">
        <ele>283.73</ele>
        <time>2020-10-11T13:29:04Z</time>
      </trkpt>
      <trkpt lat="49.60988" lon="4.98086">
        <ele>277.96</ele>
        <time>2020-10-11T13:29:18Z</time>
      </trkpt>
      <trkpt lat="49.61004" lon="4.98056">
        <ele>276.52</ele>
        <time>2020-10-11T13:29:34Z</time>
      </trkpt>
      <trkpt lat="49.61015" lon="4.98028">
        <ele>274.59</ele>
        <time>2020-10-11T13:29:52Z</time>
      </trkpt>
      <trkpt lat="49.61033" lon="4.98008">
        <ele>273.15</ele>
        <time>2020-10-11T13:30:10Z</time>
      </trkpt>
      <trkpt lat="49.61046" lon="4.9799">
        <ele>273.15</ele>
        <time>2020-10-11T13:30:26Z</time>
      </trkpt>
      <trkpt lat="49.6106" lon="4.97971">
        <ele>273.63</ele>
        <time>2020-10-11T13:30:44Z</time>
      </trkpt>
      <trkpt lat="49.61076" lon="4.97949">
        <ele>273.63</ele>
        <time>2020-10-11T13:31:02Z</time>
      </trkpt>
      <trkpt lat="49.61088" lon="4.97929">
        <ele>275.07</ele>
        <time>2020-10-11T13:31:18Z</time>
      </trkpt>
      <trkpt lat="49.61092" lon="4.97923">
        <ele>276.04</ele>
        <time>2020-10-11T13:31:32Z</time>
      </trkpt>
      <trkpt lat="49.61096" lon="4.97914">
        <ele>275.56</ele>
        <time>2020-10-11T13:31:49Z</time>
      </trkpt>
      <trkpt lat="49.61105" lon="4.97898">
        <ele>272.19</ele>
        <time>2020-10-11T13:32:07Z</time>
      </trkpt>
      <trkpt lat="49.61116" lon="4.97879">
        <ele>269.31</ele>
        <time>2020-10-11T13:32:22Z</time>
      </trkpt>
      <trkpt lat="49.61129" lon="4.97867">
        <ele>272.19</ele>
        <time>2020-10-11T13:32:41Z</time>
      </trkpt>
      <trkpt lat="49.61136" lon="4.97854">
        <ele>267.86</ele>
        <time>2020-10-11T13:33:00Z</time>
      </trkpt>
      <trkpt lat="49.61143" lon="4.9784">
        <ele>263.06</ele>
        <time>2020-10-11T13:33:17Z</time>
      </trkpt>
      <trkpt lat="49.61158" lon="4.97812">
        <ele>249.12</ele>
        <time>2020-10-11T13:33:35Z</time>
      </trkpt>
      <trkpt lat="49.6117" lon="4.97802">
        <ele>238.54</ele>
        <time>2020-10-11T13:33:51Z</time>
      </trkpt>
      <trkpt lat="49.61194" lon="4.97786">
        <ele>236.14</ele>
        <time>2020-10-11T13:34:08Z</time>
      </trkpt>
      <trkpt lat="49.61213" lon="4.97777">
        <ele>235.66</ele>
        <time>2020-10-11T13:34:25Z</time>
      </trkpt>
      <trkpt lat="49.61226" lon="4.97767">
        <ele>229.89</ele>
        <time>2020-10-11T13:34:41Z</time>
      </trkpt>
      <trkpt lat="49.61237" lon="4.97757">
        <ele>230.37</ele>
        <time>2020-10-11T13:34:57Z</time>
      </trkpt>
      <trkpt lat="49.61243" lon="4.97751">
        <ele>233.74</ele>
        <time>2020-10-11T13:35:10Z</time>
      </trkpt>
      <trkpt lat="49.61259" lon="4.97741">
        <ele>237.1</ele>
        <time>2020-10-11T13:35:25Z</time>
      </trkpt>
      <trkpt lat="49.61279" lon="4.97727">
        <ele>236.62</ele>
        <time>2020-10-11T13:35:42Z</time>
      </trkpt>
      <trkpt lat="49.61293" lon="4.97717">
        <ele>237.1</ele>
        <time>2020-10-11T13:35:58Z</time>
      </trkpt>
      <trkpt lat="49.61312" lon="4.97708">
        <ele>240.47</ele>
        <time>2020-10-11T13:36:14Z</time>
      </trkpt>
      <trkpt lat="49.61326" lon="4.97704">
        <ele>251.52</ele>
        <time>2020-10-11T13:36:29Z</time>
      </trkpt>
      <trkpt lat="49.61337" lon="4.97697">
        <ele>258.73</ele>
        <time>2020-10-11T13:36:47Z</time>
      </trkpt>
      <trkpt lat="49.61346" lon="4.9769">
        <ele>259.69</ele>
        <time>2020-10-11T13:37:01Z</time>
      </trkpt>
      <trkpt lat="49.61366" lon="4.9767">
        <ele>258.73</ele>
        <time>2020-10-11T13:37:20Z</time>
      </trkpt>
      <trkpt lat="49.61383" lon="4.97655">
        <ele>259.69</ele>
        <time>2020-10-11T13:37:36Z</time>
      </trkpt>
      <trkpt lat="49.61397" lon="4.97642">
        <ele>260.17</ele>
        <time>2020-10-11T13:37:51Z</time>
      </trkpt>
      <trkpt lat="49.61414" lon="4.97622">
        <ele>261.14</ele>
        <time>2020-10-11T13:38:10Z</time>
      </trkpt>
      <trkpt lat="49.6143" lon="4.97603">
        <ele>261.62</ele>
        <time>2020-10-11T13:38:28Z</time>
      </trkpt>
      <trkpt lat="49.61445" lon="4.97586">
        <ele>261.62</ele>
        <time>2020-10-11T13:38:44Z</time>
      </trkpt>
      <trkpt lat="49.61459" lon="4.97567">
        <ele>263.54</ele>
        <time>2020-10-11T13:39:02Z</time>
      </trkpt>
      <trkpt lat="49.61474" lon="4.9755">
        <ele>264.02</ele>
        <time>2020-10-11T13:39:20Z</time>
      </trkpt>
      <trkpt lat="49.61486" lon="4.97536">
        <ele>262.58</ele>
        <time>2020-10-11T13:39:36Z</time>
      </trkpt>
      <trkpt lat="49.61498" lon="4.97522">
        <ele>261.62</ele>
        <time>2020-10-11T13:39:52Z</time>
      </trkpt>
      <trkpt lat="49.61504" lon="4.97515">
        <ele>260.65</ele>
        <time>2020-10-11T13:40:00Z</time>
      </trkpt>
      <trkpt lat="49.61522" lon="4.97491">
        <ele>256.81</ele>
        <time>2020-10-11T13:40:21Z</time>
      </trkpt>
      <trkpt lat="49.61535" lon="4.97467">
        <ele>256.33</ele>
        <time>2020-10-11T13:40:40Z</time>
      </trkpt>
      <trkpt lat="49.6155" lon="4.97445">
        <ele>255.37</ele>
        <time>2020-10-11T13:40:59Z</time>
      </trkpt>
      <trkpt lat="49.61564" lon="4.97422">
        <ele>253.44</ele>
        <time>2020-10-11T13:41:18Z</time>
      </trkpt>
      <trkpt lat="49.61577" lon="4.97399">
        <ele>253.93</ele>
        <time>2020-10-11T13:41:35Z</time>
      </trkpt>
      <trkpt lat="49.6159" lon="4.97381">
        <ele>253.93</ele>
        <time>2020-10-11T13:41:50Z</time>
      </trkpt>
      <trkpt lat="49.61605" lon="4.9736">
        <ele>253.44</ele>
        <time>2020-10-11T13:42:09Z</time>
      </trkpt>
      <trkpt lat="49.61623" lon="4.97334">
        <ele>253.44</ele>
        <time>2020-10-11T13:42:31Z</time>
      </trkpt>
      <trkpt lat="49.61635" lon="4.97319">
        <ele>253.44</ele>
        <time>2020-10-11T13:42:45Z</time>
      </trkpt>
      <trkpt lat="49.61654" lon="4.97295">
        <ele>252.96</ele>
        <time>2020-10-11T13:43:07Z</time>
      </trkpt>
      <trkpt lat="49.61671" lon="4.97274">
        <ele>252</ele>
        <time>2020-10-11T13:43:26Z</time>
      </trkpt>
      <trkpt lat="49.61684" lon="4.97254">
        <ele>251.52</ele>
        <time>2020-10-11T13:43:42Z</time>
      </trkpt>
      <trkpt lat="49.61698" lon="4.97224">
        <ele>249.6</ele>
        <time>2020-10-11T13:44:04Z</time>
      </trkpt>
      <trkpt lat="49.61704" lon="4.97213">
        <ele>250.08</ele>
        <time>2020-10-11T13:44:13Z</time>
      </trkpt>
      <trkpt lat="49.61719" lon="4.97192">
        <ele>250.08</ele>
        <time>2020-10-11T13:44:30Z</time>
      </trkpt>
      <trkpt lat="49.61732" lon="4.97173">
        <ele>248.64</ele>
        <time>2020-10-11T13:44:47Z</time>
      </trkpt>
      <trkpt lat="49.61747" lon="4.97153">
        <ele>246.23</ele>
        <time>2020-10-11T13:45:06Z</time>
      </trkpt>
      <trkpt lat="49.61752" lon="4.97155">
        <ele>247.2</ele>
        <time>2020-10-11T13:45:10Z</time>
      </trkpt>
      <trkpt lat="49.61761" lon="4.97184">
        <ele>246.72</ele>
        <time>2020-10-11T13:45:28Z</time>
      </trkpt>
      <trkpt lat="49.61769" lon="4.97214">
        <ele>246.23</ele>
        <time>2020-10-11T13:45:47Z</time>
      </trkpt>
      <trkpt lat="49.61775" lon="4.97236">
        <ele>247.2</ele>
        <time>2020-10-11T13:46:02Z</time>
      </trkpt>
      <trkpt lat="49.61782" lon="4.97265">
        <ele>250.08</ele>
        <time>2020-10-11T13:46:20Z</time>
      </trkpt>
      <trkpt lat="49.61784" lon="4.97273">
        <ele>250.08</ele>
        <time>2020-10-11T13:46:25Z</time>
      </trkpt>
      <trkpt lat="49.61792" lon="4.973">
        <ele>250.56</ele>
        <time>2020-10-11T13:46:43Z</time>
      </trkpt>
      <trkpt lat="49.618" lon="4.97328">
        <ele>251.04</ele>
        <time>2020-10-11T13:47:01Z</time>
      </trkpt>
      <trkpt lat="49.61805" lon="4.97349">
        <ele>251.52</ele>
        <time>2020-10-11T13:47:15Z</time>
      </trkpt>
      <trkpt lat="49.6181" lon="4.9737">
        <ele>252.96</ele>
        <time>2020-10-11T13:47:28Z</time>
      </trkpt>
      <trkpt lat="49.61814" lon="4.97394">
        <ele>255.37</ele>
        <time>2020-10-11T13:47:42Z</time>
      </trkpt>
      <trkpt lat="49.61825" lon="4.97417">
        <ele>257.77</ele>
        <time>2020-10-11T13:47:59Z</time>
      </trkpt>
      <trkpt lat="49.61832" lon="4.97424">
        <ele>259.21</ele>
        <time>2020-10-11T13:48:14Z</time>
      </trkpt>
      <trkpt lat="49.61834" lon="4.97425">
        <ele>259.69</ele>
        <time>2020-10-11T13:48:27Z</time>
      </trkpt>
      <trkpt lat="49.61846" lon="4.97442">
        <ele>261.62</ele>
        <time>2020-10-11T13:48:42Z</time>
      </trkpt>
      <trkpt lat="49.61861" lon="4.97461">
        <ele>262.58</ele>
        <time>2020-10-11T13:48:59Z</time>
      </trkpt>
      <trkpt lat="49.61875" lon="4.97479">
        <ele>264.02</ele>
        <time>2020-10-11T13:49:16Z</time>
      </trkpt>
      <trkpt lat="49.61889" lon="4.97496">
        <ele>266.9</ele>
        <time>2020-10-11T13:49:33Z</time>
      </trkpt>
      <trkpt lat="49.61905" lon="4.97503">
        <ele>269.79</ele>
        <time>2020-10-11T13:49:49Z</time>
      </trkpt>
      <trkpt lat="49.61925" lon="4.97503">
        <ele>272.19</ele>
        <time>2020-10-11T13:50:07Z</time>
      </trkpt>
      <trkpt lat="49.61945" lon="4.97505">
        <ele>273.63</ele>
        <time>2020-10-11T13:50:25Z</time>
      </trkpt>
      <trkpt lat="49.61969" lon="4.97505">
        <ele>275.07</ele>
        <time>2020-10-11T13:50:47Z</time>
      </trkpt>
      <trkpt lat="49.61992" lon="4.97504">
        <ele>276.52</ele>
        <time>2020-10-11T13:51:08Z</time>
      </trkpt>
      <trkpt lat="49.62012" lon="4.97505">
        <ele>278.44</ele>
        <time>2020-10-11T13:51:26Z</time>
      </trkpt>
      <trkpt lat="49.62031" lon="4.97505">
        <ele>278.92</ele>
        <time>2020-10-11T13:51:45Z</time>
      </trkpt>
      <trkpt lat="49.62032" lon="4.97506">
        <ele>278.92</ele>
        <time>2020-10-11T13:51:47Z</time>
      </trkpt>
      <trkpt lat="49.62036" lon="4.97512">
        <ele>277.96</ele>
        <time>2020-10-11T13:52:06Z</time>
      </trkpt>
      <trkpt lat="49.62036" lon="4.97512">
        <ele>277.48</ele>
        <time>2020-10-11T13:52:28Z</time>
      </trkpt>
      <trkpt lat="49.62037" lon="4.97512">
        <ele>277</ele>
        <time>2020-10-11T13:52:58Z</time>
      </trkpt>
      <trkpt lat="49.62035" lon="4.9752">
        <ele>275.56</ele>
        <time>2020-10-11T13:53:17Z</time>
      </trkpt>
      <trkpt lat="49.62035" lon="4.97522">
        <ele>275.56</ele>
        <time>2020-10-11T13:53:18Z</time>
      </trkpt>
      <trkpt lat="49.62032" lon="4.97556">
        <ele>274.59</ele>
        <time>2020-10-11T13:53:37Z</time>
      </trkpt>
      <trkpt lat="49.62029" lon="4.97588">
        <ele>275.07</ele>
        <time>2020-10-11T13:53:55Z</time>
      </trkpt>
      <trkpt lat="49.62029" lon="4.97617">
        <ele>275.07</ele>
        <time>2020-10-11T13:54:11Z</time>
      </trkpt>
      <trkpt lat="49.62028" lon="4.97626">
        <ele>275.56</ele>
        <time>2020-10-11T13:54:16Z</time>
      </trkpt>
      <trkpt lat="49.62026" lon="4.97656">
        <ele>275.07</ele>
        <time>2020-10-11T13:54:34Z</time>
      </trkpt>
      <trkpt lat="49.62023" lon="4.97681">
        <ele>274.59</ele>
        <time>2020-10-11T13:54:49Z</time>
      </trkpt>
      <trkpt lat="49.62017" lon="4.97714">
        <ele>274.59</ele>
        <time>2020-10-11T13:55:09Z</time>
      </trkpt>
      <trkpt lat="49.62012" lon="4.97745">
        <ele>275.07</ele>
        <time>2020-10-11T13:55:27Z</time>
      </trkpt>
      <trkpt lat="49.62008" lon="4.97774">
        <ele>276.52</ele>
        <time>2020-10-11T13:55:44Z</time>
      </trkpt>
      <trkpt lat="49.62005" lon="4.97798">
        <ele>277.48</ele>
        <time>2020-10-11T13:56:01Z</time>
      </trkpt>
      <trkpt lat="49.62005" lon="4.97797">
        <ele>277.96</ele>
        <time>2020-10-11T13:56:13Z</time>
      </trkpt>
      <trkpt lat="49.61998" lon="4.97821">
        <ele>277.96</ele>
        <time>2020-10-11T13:56:29Z</time>
      </trkpt>
      <trkpt lat="49.6199" lon="4.9785">
        <ele>278.92</ele>
        <time>2020-10-11T13:56:46Z</time>
      </trkpt>
      <trkpt lat="49.61982" lon="4.97875">
        <ele>277.96</ele>
        <time>2020-10-11T13:57:03Z</time>
      </trkpt>
      <trkpt lat="49.61981" lon="4.97877">
        <ele>277.96</ele>
        <time>2020-10-11T13:57:05Z</time>
      </trkpt>
      <trkpt lat="49.61965" lon="4.97904">
        <ele>277</ele>
        <time>2020-10-11T13:57:27Z</time>
      </trkpt>
      <trkpt lat="49.61949" lon="4.9793">
        <ele>277.96</ele>
        <time>2020-10-11T13:57:47Z</time>
      </trkpt>
      <trkpt lat="49.61933" lon="4.97951">
        <ele>277</ele>
        <time>2020-10-11T13:58:05Z</time>
      </trkpt>
      <trkpt lat="49.61917" lon="4.97973">
        <ele>276.04</ele>
        <time>2020-10-11T13:58:23Z</time>
      </trkpt>
      <trkpt lat="49.61905" lon="4.9799">
        <ele>274.59</ele>
        <time>2020-10-11T13:58:38Z</time>
      </trkpt>
      <trkpt lat="49.61903" lon="4.97996">
        <ele>275.56</ele>
        <time>2020-10-11T13:58:42Z</time>
      </trkpt>
      <trkpt lat="49.61891" lon="4.98021">
        <ele>277.48</ele>
        <time>2020-10-11T13:59:02Z</time>
      </trkpt>
      <trkpt lat="49.61879" lon="4.98048">
        <ele>277.96</ele>
        <time>2020-10-11T13:59:21Z</time>
      </trkpt>
      <trkpt lat="49.6187" lon="4.98071">
        <ele>278.92</ele>
        <time>2020-10-11T13:59:38Z</time>
      </trkpt>
      <trkpt lat="49.61863" lon="4.98091">
        <ele>280.36</ele>
        <time>2020-10-11T13:59:52Z</time>
      </trkpt>
      <trkpt lat="49.61851" lon="4.98117">
        <ele>283.25</ele>
        <time>2020-10-11T14:00:11Z</time>
      </trkpt>
      <trkpt lat="49.6184" lon="4.98141">
        <ele>284.69</ele>
        <time>2020-10-11T14:00:26Z</time>
      </trkpt>
      <trkpt lat="49.61833" lon="4.98162">
        <ele>286.61</ele>
        <time>2020-10-11T14:00:39Z</time>
      </trkpt>
      <trkpt lat="49.6183" lon="4.98178">
        <ele>288.05</ele>
        <time>2020-10-11T14:00:52Z</time>
      </trkpt>
      <trkpt lat="49.61831" lon="4.98178">
        <ele>289.49</ele>
        <time>2020-10-11T14:01:08Z</time>
      </trkpt>
      <trkpt lat="49.61831" lon="4.98178">
        <ele>289.97</ele>
        <time>2020-10-11T14:01:13Z</time>
      </trkpt>
      <trkpt lat="49.61845" lon="4.98174">
        <ele>289.01</ele>
        <time>2020-10-11T14:01:30Z</time>
      </trkpt>
      <trkpt lat="49.61862" lon="4.98165">
        <ele>287.09</ele>
        <time>2020-10-11T14:01:48Z</time>
      </trkpt>
      <trkpt lat="49.61884" lon="4.98158">
        <ele>287.57</ele>
        <time>2020-10-11T14:02:09Z</time>
      </trkpt>
      <trkpt lat="49.619" lon="4.98159">
        <ele>289.49</ele>
        <time>2020-10-11T14:02:27Z</time>
      </trkpt>
      <trkpt lat="49.61919" lon="4.98165">
        <ele>288.53</ele>
        <time>2020-10-11T14:02:47Z</time>
      </trkpt>
      <trkpt lat="49.61938" lon="4.98172">
        <ele>286.13</ele>
        <time>2020-10-11T14:03:07Z</time>
      </trkpt>
      <trkpt lat="49.61959" lon="4.98178">
        <ele>286.13</ele>
        <time>2020-10-11T14:03:26Z</time>
      </trkpt>
      <trkpt lat="49.61978" lon="4.98187">
        <ele>284.69</ele>
        <time>2020-10-11T14:03:44Z</time>
      </trkpt>
      <trkpt lat="49.61994" lon="4.98195">
        <ele>282.77</ele>
        <time>2020-10-11T14:04:00Z</time>
      </trkpt>
      <trkpt lat="49.62012" lon="4.98204">
        <ele>282.77</ele>
        <time>2020-10-11T14:04:18Z</time>
      </trkpt>
      <trkpt lat="49.62033" lon="4.98214">
        <ele>282.77</ele>
        <time>2020-10-11T14:04:40Z</time>
      </trkpt>
      <trkpt lat="49.62049" lon="4.98219">
        <ele>281.8</ele>
        <time>2020-10-11T14:04:58Z</time>
      </trkpt>
      <trkpt lat="49.62069" lon="4.98226">
        <ele>279.4</ele>
        <time>2020-10-11T14:05:17Z</time>
      </trkpt>
      <trkpt lat="49.62084" lon="4.98232">
        <ele>280.36</ele>
        <time>2020-10-11T14:05:33Z</time>
      </trkpt>
      <trkpt lat="49.62099" lon="4.98241">
        <ele>276.52</ele>
        <time>2020-10-11T14:05:49Z</time>
      </trkpt>
      <trkpt lat="49.62102" lon="4.98244">
        <ele>276.04</ele>
        <time>2020-10-11T14:05:53Z</time>
      </trkpt>
      <trkpt lat="49.62118" lon="4.98261">
        <ele>272.67</ele>
        <time>2020-10-11T14:06:11Z</time>
      </trkpt>
      <trkpt lat="49.62131" lon="4.98271">
        <ele>269.79</ele>
        <time>2020-10-11T14:06:26Z</time>
      </trkpt>
      <trkpt lat="49.62145" lon="4.9828">
        <ele>270.75</ele>
        <time>2020-10-11T14:06:41Z</time>
      </trkpt>
      <trkpt lat="49.62164" lon="4.98288">
        <ele>269.79</ele>
        <time>2020-10-11T14:06:59Z</time>
      </trkpt>
      <trkpt lat="49.62182" lon="4.98294">
        <ele>267.86</ele>
        <time>2020-10-11T14:07:17Z</time>
      </trkpt>
      <trkpt lat="49.62196" lon="4.98299">
        <ele>269.79</ele>
        <time>2020-10-11T14:07:34Z</time>
      </trkpt>
      <trkpt lat="49.62212" lon="4.98305">
        <ele>270.27</ele>
        <time>2020-10-11T14:07:51Z</time>
      </trkpt>
      <trkpt lat="49.62229" lon="4.9831">
        <ele>268.83</ele>
        <time>2020-10-11T14:08:07Z</time>
      </trkpt>
      <trkpt lat="49.62246" lon="4.98319">
        <ele>268.83</ele>
        <time>2020-10-11T14:08:25Z</time>
      </trkpt>
      <trkpt lat="49.62264" lon="4.98341">
        <ele>266.42</ele>
        <time>2020-10-11T14:08:45Z</time>
      </trkpt>
      <trkpt lat="49.62277" lon="4.98361">
        <ele>263.06</ele>
        <time>2020-10-11T14:09:02Z</time>
      </trkpt>
      <trkpt lat="49.62279" lon="4.98368">
        <ele>263.06</ele>
        <time>2020-10-11T14:09:07Z</time>
      </trkpt>
      <trkpt lat="49.62282" lon="4.98376">
        <ele>264.02</ele>
        <time>2020-10-11T14:09:12Z</time>
      </trkpt>
      <trkpt lat="49.62286" lon="4.98381">
        <ele>264.5</ele>
        <time>2020-10-11T14:09:16Z</time>
      </trkpt>
      <trkpt lat="49.62295" lon="4.98395">
        <ele>262.58</ele>
        <time>2020-10-11T14:09:30Z</time>
      </trkpt>
      <trkpt lat="49.62305" lon="4.98415">
        <ele>260.17</ele>
        <time>2020-10-11T14:09:46Z</time>
      </trkpt>
      <trkpt lat="49.62315" lon="4.98427">
        <ele>257.77</ele>
        <time>2020-10-11T14:10:01Z</time>
      </trkpt>
      <trkpt lat="49.62335" lon="4.98444">
        <ele>255.85</ele>
        <time>2020-10-11T14:10:22Z</time>
      </trkpt>
      <trkpt lat="49.62356" lon="4.98457">
        <ele>254.41</ele>
        <time>2020-10-11T14:10:43Z</time>
      </trkpt>
      <trkpt lat="49.62376" lon="4.98469">
        <ele>253.93</ele>
        <time>2020-10-11T14:11:03Z</time>
      </trkpt>
      <trkpt lat="49.62392" lon="4.98478">
        <ele>254.41</ele>
        <time>2020-10-11T14:11:20Z</time>
      </trkpt>
      <trkpt lat="49.6241" lon="4.98491">
        <ele>254.41</ele>
        <time>2020-10-11T14:11:39Z</time>
      </trkpt>
      <trkpt lat="49.62427" lon="4.98503">
        <ele>252.48</ele>
        <time>2020-10-11T14:11:58Z</time>
      </trkpt>
      <trkpt lat="49.62444" lon="4.98516">
        <ele>251.52</ele>
        <time>2020-10-11T14:12:15Z</time>
      </trkpt>
      <trkpt lat="49.62464" lon="4.98531">
        <ele>252</ele>
        <time>2020-10-11T14:12:35Z</time>
      </trkpt>
      <trkpt lat="49.62478" lon="4.98542">
        <ele>252.48</ele>
        <time>2020-10-11T14:12:48Z</time>
      </trkpt>
      <trkpt lat="49.62479" lon="4.98546">
        <ele>252.48</ele>
        <time>2020-10-11T14:12:51Z</time>
      </trkpt>
      <trkpt lat="49.62495" lon="4.98557">
        <ele>252.96</ele>
        <time>2020-10-11T14:13:08Z</time>
      </trkpt>
      <trkpt lat="49.62502" lon="4.98557">
        <ele>253.44</ele>
        <time>2020-10-11T14:13:23Z</time>
      </trkpt>
      <trkpt lat="49.62506" lon="4.98542">
        <ele>251.04</ele>
        <time>2020-10-11T14:13:39Z</time>
      </trkpt>
      <trkpt lat="49.62511" lon="4.98541">
        <ele>251.04</ele>
        <time>2020-10-11T14:13:57Z</time>
      </trkpt>
      <trkpt lat="49.62525" lon="4.98536">
        <ele>250.08</ele>
        <time>2020-10-11T14:14:14Z</time>
      </trkpt>
      <trkpt lat="49.62535" lon="4.98533">
        <ele>250.08</ele>
        <time>2020-10-11T14:14:31Z</time>
      </trkpt>
      <trkpt lat="49.62532" lon="4.98533">
        <ele>250.56</ele>
        <time>2020-10-11T14:14:50Z</time>
      </trkpt>
      <trkpt lat="49.6252" lon="4.98538">
        <ele>251.52</ele>
        <time>2020-10-11T14:15:05Z</time>
      </trkpt>
      <trkpt lat="49.62513" lon="4.98535">
        <ele>251.04</ele>
        <time>2020-10-11T14:15:22Z</time>
      </trkpt>
      <trkpt lat="49.62511" lon="4.98535">
        <ele>250.56</ele>
        <time>2020-10-11T14:15:39Z</time>
      </trkpt>
      <trkpt lat="49.6251" lon="4.98534">
        <ele>249.6</ele>
        <time>2020-10-11T14:16:08Z</time>
      </trkpt>
      <trkpt lat="49.6251" lon="4.98535">
        <ele>250.08</ele>
        <time>2020-10-11T14:16:27Z</time>
      </trkpt>
      <trkpt lat="49.6251" lon="4.98535">
        <ele>251.04</ele>
        <time>2020-10-11T14:16:47Z</time>
      </trkpt>
      <trkpt lat="49.6251" lon="4.98535">
        <ele>250.56</ele>
        <time>2020-10-11T14:17:12Z</time>
      </trkpt>
      <trkpt lat="49.62509" lon="4.98536">
        <ele>250.56</ele>
        <time>2020-10-11T14:17:31Z</time>
      </trkpt>
      <trkpt lat="49.62509" lon="4.98536">
        <ele>251.04</ele>
        <time>2020-10-11T14:17:48Z</time>
      </trkpt>
      <trkpt lat="49.6251" lon="4.98536">
        <ele>251.52</ele>
        <time>2020-10-11T14:18:04Z</time>
      </trkpt>
      <trkpt lat="49.6251" lon="4.98536">
        <ele>252</ele>
        <time>2020-10-11T14:18:20Z</time>
      </trkpt>
      <trkpt lat="49.62509" lon="4.98536">
        <ele>252.48</ele>
        <time>2020-10-11T14:18:38Z</time>
      </trkpt>
      <trkpt lat="49.62509" lon="4.98536">
        <ele>252.48</ele>
        <time>2020-10-11T14:18:51Z</time>
      </trkpt>
      <trkpt lat="49.62508" lon="4.98537">
        <ele>253.44</ele>
        <time>2020-10-11T14:19:08Z</time>
      </trkpt>
      <trkpt lat="49.62507" lon="4.98539">
        <ele>253.44</ele>
        <time>2020-10-11T14:19:25Z</time>
      </trkpt>
      <trkpt lat="49.62507" lon="4.98538">
        <ele>253.93</ele>
        <time>2020-10-11T14:19:39Z</time>
      </trkpt>
      <trkpt lat="49.62507" lon="4.98539">
        <ele>253.93</ele>
        <time>2020-10-11T14:19:57Z</time>
      </trkpt>
      <trkpt lat="49.62509" lon="4.98541">
        <ele>252.96</ele>
        <time>2020-10-11T14:20:21Z</time>
      </trkpt>
      <trkpt lat="49.62508" lon="4.98539">
        <ele>252.96</ele>
        <time>2020-10-11T14:20:53Z</time>
      </trkpt>
      <trkpt lat="49.62509" lon="4.98538">
        <ele>253.44</ele>
        <time>2020-10-11T14:21:19Z</time>
      </trkpt>
      <trkpt lat="49.62508" lon="4.98537">
        <ele>253.44</ele>
        <time>2020-10-11T14:21:39Z</time>
      </trkpt>
      <trkpt lat="49.62509" lon="4.98539">
        <ele>253.44</ele>
        <time>2020-10-11T14:21:59Z</time>
      </trkpt>
      <trkpt lat="49.62509" lon="4.98538">
        <ele>254.41</ele>
        <time>2020-10-11T14:22:27Z</time>
      </trkpt>
      <trkpt lat="49.62509" lon="4.98536">
        <ele>254.41</ele>
        <time>2020-10-11T14:22:50Z</time>
      </trkpt>
      <trkpt lat="49.62508" lon="4.98536">
        <ele>253.93</ele>
        <time>2020-10-11T14:23:05Z</time>
      </trkpt>
      <trkpt lat="49.62508" lon="4.98536">
        <ele>254.41</ele>
        <time>2020-10-11T14:23:19Z</time>
      </trkpt>
      <trkpt lat="49.62508" lon="4.98536">
        <ele>254.41</ele>
        <time>2020-10-11T14:23:31Z</time>
      </trkpt>
      <trkpt lat="49.62508" lon="4.98536">
        <ele>254.41</ele>
        <time>2020-10-11T14:23:45Z</time>
      </trkpt>
      <trkpt lat="49.62509" lon="4.98536">
        <ele>254.41</ele>
        <time>2020-10-11T14:23:58Z</time>
      </trkpt>
      <trkpt lat="49.62509" lon="4.98538">
        <ele>254.41</ele>
        <time>2020-10-11T14:24:12Z</time>
      </trkpt>
      <trkpt lat="49.6251" lon="4.98539">
        <ele>253.93</ele>
        <time>2020-10-11T14:24:39Z</time>
      </trkpt>
      <trkpt lat="49.6251" lon="4.9854">
        <ele>253.93</ele>
        <time>2020-10-11T14:24:54Z</time>
      </trkpt>
      <trkpt lat="49.6251" lon="4.98541">
        <ele>253.44</ele>
        <time>2020-10-11T14:25:13Z</time>
      </trkpt>
      <trkpt lat="49.62511" lon="4.98542">
        <ele>253.44</ele>
        <time>2020-10-11T14:25:32Z</time>
      </trkpt>
      <trkpt lat="49.62511" lon="4.98543">
        <ele>253.44</ele>
        <time>2020-10-11T14:25:53Z</time>
      </trkpt>
      <trkpt lat="49.62511" lon="4.98543">
        <ele>253.44</ele>
        <time>2020-10-11T14:26:00Z</time>
      </trkpt>
      <trkpt lat="49.62512" lon="4.9854">
        <ele>253.93</ele>
        <time>2020-10-11T14:26:14Z</time>
      </trkpt>
      <trkpt lat="49.62512" lon="4.9854">
        <ele>254.41</ele>
        <time>2020-10-11T14:26:29Z</time>
      </trkpt>
      <trkpt lat="49.62509" lon="4.98541">
        <ele>254.41</ele>
        <time>2020-10-11T14:26:42Z</time>
      </trkpt>
      <trkpt lat="49.62507" lon="4.98543">
        <ele>253.93</ele>
        <time>2020-10-11T14:26:55Z</time>
      </trkpt>
      <trkpt lat="49.62507" lon="4.98541">
        <ele>253.93</ele>
        <time>2020-10-11T14:27:08Z</time>
      </trkpt>
      <trkpt lat="49.62508" lon="4.98539">
        <ele>253.93</ele>
        <time>2020-10-11T14:27:23Z</time>
      </trkpt>
      <trkpt lat="49.62508" lon="4.98538">
        <ele>254.41</ele>
        <time>2020-10-11T14:27:42Z</time>
      </trkpt>
      <trkpt lat="49.62508" lon="4.98538">
        <ele>254.89</ele>
        <time>2020-10-11T14:28:12Z</time>
      </trkpt>
      <trkpt lat="49.62508" lon="4.98538">
        <ele>254.41</ele>
        <time>2020-10-11T14:28:36Z</time>
      </trkpt>
      <trkpt lat="49.62508" lon="4.98538">
        <ele>253.93</ele>
        <time>2020-10-11T14:28:52Z</time>
      </trkpt>
      <trkpt lat="49.62508" lon="4.98537">
        <ele>253.93</ele>
        <time>2020-10-11T14:29:17Z</time>
      </trkpt>
      <trkpt lat="49.62507" lon="4.98538">
        <ele>253.44</ele>
        <time>2020-10-11T14:29:37Z</time>
      </trkpt>
      <trkpt lat="49.62507" lon="4.98538">
        <ele>253.44</ele>
        <time>2020-10-11T14:29:59Z</time>
      </trkpt>
      <trkpt lat="49.62507" lon="4.98539">
        <ele>252.96</ele>
        <time>2020-10-11T14:30:15Z</time>
      </trkpt>
      <trkpt lat="49.62507" lon="4.98543">
        <ele>252.48</ele>
        <time>2020-10-11T14:30:28Z</time>
      </trkpt>
      <trkpt lat="49.62513" lon="4.98548">
        <ele>252.96</ele>
        <time>2020-10-11T14:30:43Z</time>
      </trkpt>
      <trkpt lat="49.62527" lon="4.98556">
        <ele>252.48</ele>
        <time>2020-10-11T14:31:00Z</time>
      </trkpt>
      <trkpt lat="49.62544" lon="4.98556">
        <ele>250.08</ele>
        <time>2020-10-11T14:31:19Z</time>
      </trkpt>
      <trkpt lat="49.62546" lon="4.9856">
        <ele>249.12</ele>
        <time>2020-10-11T14:31:35Z</time>
      </trkpt>
      <trkpt lat="49.62548" lon="4.98563">
        <ele>248.16</ele>
        <time>2020-10-11T14:31:55Z</time>
      </trkpt>
      <trkpt lat="49.62555" lon="4.98581">
        <ele>248.16</ele>
        <time>2020-10-11T14:32:11Z</time>
      </trkpt>
      <trkpt lat="49.62565" lon="4.98579">
        <ele>249.12</ele>
        <time>2020-10-11T14:32:26Z</time>
      </trkpt>
      <trkpt lat="49.62581" lon="4.98565">
        <ele>249.6</ele>
        <time>2020-10-11T14:32:46Z</time>
      </trkpt>
      <trkpt lat="49.62597" lon="4.98551">
        <ele>249.6</ele>
        <time>2020-10-11T14:33:05Z</time>
      </trkpt>
      <trkpt lat="49.62615" lon="4.98536">
        <ele>249.12</ele>
        <time>2020-10-11T14:33:25Z</time>
      </trkpt>
      <trkpt lat="49.62629" lon="4.98524">
        <ele>251.04</ele>
        <time>2020-10-11T14:33:41Z</time>
      </trkpt>
      <trkpt lat="49.62635" lon="4.98517">
        <ele>251.04</ele>
        <time>2020-10-11T14:33:48Z</time>
      </trkpt>
      <trkpt lat="49.62641" lon="4.98514">
        <ele>252</ele>
        <time>2020-10-11T14:34:09Z</time>
      </trkpt>
      <trkpt lat="49.62643" lon="4.98515">
        <ele>253.44</ele>
        <time>2020-10-11T14:34:32Z</time>
      </trkpt>
      <trkpt lat="49.62645" lon="4.98514">
        <ele>254.41</ele>
        <time>2020-10-11T14:35:00Z</time>
      </trkpt>
      <trkpt lat="49.6266" lon="4.98497">
        <ele>251.52</ele>
        <time>2020-10-11T14:35:20Z</time>
      </trkpt>
      <trkpt lat="49.62675" lon="4.98488">
        <ele>250.08</ele>
        <time>2020-10-11T14:35:36Z</time>
      </trkpt>
      <trkpt lat="49.62694" lon="4.98472">
        <ele>247.2</ele>
        <time>2020-10-11T14:35:56Z</time>
      </trkpt>
      <trkpt lat="49.62696" lon="4.98471">
        <ele>247.2</ele>
        <time>2020-10-11T14:35:58Z</time>
      </trkpt>
      <trkpt lat="49.62708" lon="4.98461">
        <ele>246.23</ele>
        <time>2020-10-11T14:36:14Z</time>
      </trkpt>
      <trkpt lat="49.62723" lon="4.98447">
        <ele>245.27</ele>
        <time>2020-10-11T14:36:32Z</time>
      </trkpt>
      <trkpt lat="49.62739" lon="4.98434">
        <ele>245.75</ele>
        <time>2020-10-11T14:36:51Z</time>
      </trkpt>
      <trkpt lat="49.62758" lon="4.98419">
        <ele>245.27</ele>
        <time>2020-10-11T14:37:11Z</time>
      </trkpt>
      <trkpt lat="49.62762" lon="4.98417">
        <ele>244.79</ele>
        <time>2020-10-11T14:37:27Z</time>
      </trkpt>
      <trkpt lat="49.6277" lon="4.98408">
        <ele>245.75</ele>
        <time>2020-10-11T14:37:37Z</time>
      </trkpt>
      <trkpt lat="49.62787" lon="4.98397">
        <ele>246.23</ele>
        <time>2020-10-11T14:37:55Z</time>
      </trkpt>
      <trkpt lat="49.62802" lon="4.98387">
        <ele>245.75</ele>
        <time>2020-10-11T14:38:14Z</time>
      </trkpt>
      <trkpt lat="49.62813" lon="4.98377">
        <ele>243.83</ele>
        <time>2020-10-11T14:38:29Z</time>
      </trkpt>
      <trkpt lat="49.62829" lon="4.98365">
        <ele>239.99</ele>
        <time>2020-10-11T14:38:48Z</time>
      </trkpt>
      <trkpt lat="49.62843" lon="4.98358">
        <ele>235.66</ele>
        <time>2020-10-11T14:39:07Z</time>
      </trkpt>
      <trkpt lat="49.62856" lon="4.98353">
        <ele>233.74</ele>
        <time>2020-10-11T14:39:27Z</time>
      </trkpt>
      <trkpt lat="49.62876" lon="4.98345">
        <ele>228.93</ele>
        <time>2020-10-11T14:39:47Z</time>
      </trkpt>
      <trkpt lat="49.62893" lon="4.98342">
        <ele>225.09</ele>
        <time>2020-10-11T14:40:04Z</time>
      </trkpt>
      <trkpt lat="49.629" lon="4.98339">
        <ele>224.61</ele>
        <time>2020-10-11T14:40:20Z</time>
      </trkpt>
      <trkpt lat="49.62918" lon="4.98333">
        <ele>221.24</ele>
        <time>2020-10-11T14:40:39Z</time>
      </trkpt>
      <trkpt lat="49.62935" lon="4.9833">
        <ele>217.4</ele>
        <time>2020-10-11T14:40:57Z</time>
      </trkpt>
      <trkpt lat="49.62952" lon="4.9833">
        <ele>212.59</ele>
        <time>2020-10-11T14:41:17Z</time>
      </trkpt>
      <trkpt lat="49.62968" lon="4.9833">
        <ele>211.15</ele>
        <time>2020-10-11T14:41:35Z</time>
      </trkpt>
      <trkpt lat="49.62986" lon="4.98329">
        <ele>210.67</ele>
        <time>2020-10-11T14:41:54Z</time>
      </trkpt>
      <trkpt lat="49.63004" lon="4.98333">
        <ele>211.15</ele>
        <time>2020-10-11T14:42:14Z</time>
      </trkpt>
      <trkpt lat="49.63019" lon="4.98332">
        <ele>209.7</ele>
        <time>2020-10-11T14:42:33Z</time>
      </trkpt>
      <trkpt lat="49.63031" lon="4.98332">
        <ele>210.19</ele>
        <time>2020-10-11T14:42:48Z</time>
      </trkpt>
      <trkpt lat="49.63046" lon="4.98333">
        <ele>210.19</ele>
        <time>2020-10-11T14:43:05Z</time>
      </trkpt>
      <trkpt lat="49.63065" lon="4.98333">
        <ele>209.7</ele>
        <time>2020-10-11T14:43:25Z</time>
      </trkpt>
      <trkpt lat="49.63083" lon="4.98334">
        <ele>209.7</ele>
        <time>2020-10-11T14:43:44Z</time>
      </trkpt>
      <trkpt lat="49.63099" lon="4.9834">
        <ele>209.7</ele>
        <time>2020-10-11T14:44:02Z</time>
      </trkpt>
      <trkpt lat="49.63118" lon="4.98345">
        <ele>209.22</ele>
        <time>2020-10-11T14:44:21Z</time>
      </trkpt>
      <trkpt lat="49.63134" lon="4.98344">
        <ele>207.78</ele>
        <time>2020-10-11T14:44:36Z</time>
      </trkpt>
      <trkpt lat="49.63152" lon="4.98344">
        <ele>205.38</ele>
        <time>2020-10-11T14:44:54Z</time>
      </trkpt>
      <trkpt lat="49.63168" lon="4.98342">
        <ele>205.38</ele>
        <time>2020-10-11T14:45:10Z</time>
      </trkpt>
      <trkpt lat="49.63185" lon="4.98346">
        <ele>202.98</ele>
        <time>2020-10-11T14:45:28Z</time>
      </trkpt>
      <trkpt lat="49.63208" lon="4.98348">
        <ele>202.01</ele>
        <time>2020-10-11T14:45:49Z</time>
      </trkpt>
      <trkpt lat="49.63226" lon="4.98349">
        <ele>202.49</ele>
        <time>2020-10-11T14:46:07Z</time>
      </trkpt>
      <trkpt lat="49.63245" lon="4.98351">
        <ele>203.94</ele>
        <time>2020-10-11T14:46:25Z</time>
      </trkpt>
      <trkpt lat="49.63263" lon="4.98354">
        <ele>202.01</ele>
        <time>2020-10-11T14:46:43Z</time>
      </trkpt>
      <trkpt lat="49.63282" lon="4.98356">
        <ele>200.57</ele>
        <time>2020-10-11T14:47:02Z</time>
      </trkpt>
      <trkpt lat="49.63296" lon="4.9836">
        <ele>199.61</ele>
        <time>2020-10-11T14:47:17Z</time>
      </trkpt>
      <trkpt lat="49.63312" lon="4.98359">
        <ele>198.65</ele>
        <time>2020-10-11T14:47:34Z</time>
      </trkpt>
      <trkpt lat="49.63334" lon="4.98356">
        <ele>195.77</ele>
        <time>2020-10-11T14:47:57Z</time>
      </trkpt>
      <trkpt lat="49.6335" lon="4.98346">
        <ele>193.36</ele>
        <time>2020-10-11T14:48:14Z</time>
      </trkpt>
      <trkpt lat="49.63366" lon="4.98336">
        <ele>191.92</ele>
        <time>2020-10-11T14:48:31Z</time>
      </trkpt>
      <trkpt lat="49.63376" lon="4.98336">
        <ele>191.92</ele>
        <time>2020-10-11T14:48:45Z</time>
      </trkpt>
      <trkpt lat="49.63383" lon="4.98331">
        <ele>191.92</ele>
        <time>2020-10-11T14:48:52Z</time>
      </trkpt>
      <trkpt lat="49.63392" lon="4.98322">
        <ele>191.44</ele>
        <time>2020-10-11T14:49:03Z</time>
      </trkpt>
      <trkpt lat="49.63407" lon="4.98307">
        <ele>190.96</ele>
        <time>2020-10-11T14:49:21Z</time>
      </trkpt>
      <trkpt lat="49.6342" lon="4.98289">
        <ele>190</ele>
        <time>2020-10-11T14:49:37Z</time>
      </trkpt>
      <trkpt lat="49.63427" lon="4.98279">
        <ele>190</ele>
        <time>2020-10-11T14:49:50Z</time>
      </trkpt>
      <trkpt lat="49.63434" lon="4.98266">
        <ele>189.04</ele>
        <time>2020-10-11T14:50:04Z</time>
      </trkpt>
      <trkpt lat="49.63446" lon="4.98246">
        <ele>188.08</ele>
        <time>2020-10-11T14:50:23Z</time>
      </trkpt>
      <trkpt lat="49.63457" lon="4.98229">
        <ele>186.63</ele>
        <time>2020-10-11T14:50:39Z</time>
      </trkpt>
      <trkpt lat="49.63468" lon="4.98204">
        <ele>187.11</ele>
        <time>2020-10-11T14:50:59Z</time>
      </trkpt>
      <trkpt lat="49.63476" lon="4.98183">
        <ele>184.71</ele>
        <time>2020-10-11T14:51:15Z</time>
      </trkpt>
      <trkpt lat="49.63485" lon="4.98158">
        <ele>184.23</ele>
        <time>2020-10-11T14:51:31Z</time>
      </trkpt>
      <trkpt lat="49.63491" lon="4.98147">
        <ele>184.71</ele>
        <time>2020-10-11T14:51:40Z</time>
      </trkpt>
      <trkpt lat="49.63492" lon="4.98126">
        <ele>184.23</ele>
        <time>2020-10-11T14:51:55Z</time>
      </trkpt>
      <trkpt lat="49.63487" lon="4.98111">
        <ele>185.19</ele>
        <time>2020-10-11T14:52:09Z</time>
      </trkpt>
      <trkpt lat="49.63472" lon="4.98095">
        <ele>183.27</ele>
        <time>2020-10-11T14:52:27Z</time>
      </trkpt>
      <trkpt lat="49.63462" lon="4.98075">
        <ele>178.46</ele>
        <time>2020-10-11T14:52:44Z</time>
      </trkpt>
      <trkpt lat="49.63454" lon="4.98054">
        <ele>175.1</ele>
        <time>2020-10-11T14:53:00Z</time>
      </trkpt>
      <trkpt lat="49.63454" lon="4.98046">
        <ele>178.94</ele>
        <time>2020-10-11T14:53:13Z</time>
      </trkpt>
      <trkpt lat="49.63453" lon="4.98044">
        <ele>177.98</ele>
        <time>2020-10-11T14:53:19Z</time>
      </trkpt>
      <trkpt lat="49.63471" lon="4.98014">
        <ele>178.46</ele>
        <time>2020-10-11T15:28:42Z</time>
      </trkpt>
      <trkpt lat="49.63461" lon="4.98024">
        <ele>178.46</ele>
        <time>2020-10-11T15:29:07Z</time>
      </trkpt>
    </trkseg>
  </trk>
</gpx>